Observation data for Vigo Park on 12/07/2017      Previous  Date       Current Mesonet Observations  Soil Data  Daily Summary Page  Observations in Plain Language
KVP1 070601Z 36007KT M05/M11 A3041 RMK A01 T10521114  RH  062%=      5-min Rain = 0
KVP1 070602Z 35007KT M05/M11 A3041 RMK A01 T10501113  RH  061%=      5-min Rain = 0
KVP1 070603Z 35006KT M05/M11 A3041 RMK A01 T10491113  RH  061%=      5-min Rain = 0
KVP1 070604Z 35007KT M05/M11 A3041 RMK A01 T10491114  RH  060%=      5-min Rain = 0
KVP1 070605Z 35007KT M05/M12 A3041 RMK A01 T10501116  RH  060%=      5-min Rain = 0
KVP1 070606Z 35007KT M05/M12 A3041 RMK A01 T10511116  RH  060%=      5-min Rain = 0
KVP1 070607Z 36006KT M05/M12 A3041 RMK A01 T10521116  RH  061%=      5-min Rain = 0
KVP1 070608Z 36007KT M05/M12 A3041 RMK A01 T10531116  RH  061%=      5-min Rain = 0
KVP1 070609Z 35007KT M05/M12 A3041 RMK A01 T10521115  RH  061%=      5-min Rain = 0
KVP1 070610Z 35007KT M05/M12 A3041 RMK A01 T10511115  RH  061%=      5-min Rain = 0
KVP1 070611Z 35007KT M05/M12 A3041 RMK A01 T10511115  RH  061%=      5-min Rain = 0
KVP1 070612Z 36007KT M05/M12 A3041 RMK A01 T10521116  RH  061%=      5-min Rain = 0
KVP1 070613Z 35007KT M05/M12 A3041 RMK A01 T10531117  RH  061%=      5-min Rain = 0
KVP1 070614Z 35007KT M05/M12 A3041 RMK A01 T10541117  RH  061%=      5-min Rain = 0
KVP1 070615Z 35007KT M05/M12 A3041 RMK A01 T10541117  RH  061%=      5-min Rain = 0
KVP1 070616Z 36007KT M05/M12 A3041 RMK A01 T10531115  RH  061%=      5-min Rain = 0
KVP1 070617Z 00007KT M05/M11 A3041 RMK A01 T10511114  RH  061%=      5-min Rain = 0
KVP1 070618Z 00007KT M05/M11 A3041 RMK A01 T10481114  RH  060%=      5-min Rain = 0
KVP1 070619Z 36007KT M05/M11 A3041 RMK A01 T10461113  RH  059%=      5-min Rain = 0
KVP1 070620Z 00007KT M04/M11 A3041 RMK A01 T10441112  RH  059%=      5-min Rain = 0
KVP1 070621Z 00007KT M04/M11 A3041 RMK A01 T10431113  RH  058%=      5-min Rain = 0
KVP1 070622Z 00008KT M04/M11 A3041 RMK A01 T10431114  RH  058%=      5-min Rain = 0
KVP1 070623Z 36008KT M04/M11 A3041 RMK A01 T10431114  RH  058%=      5-min Rain = 0
KVP1 070624Z 36007KT M04/M12 A3041 RMK A01 T10431115  RH  057%=      5-min Rain = 0
KVP1 070625Z 36008KT M04/M12 A3041 RMK A01 T10431115  RH  057%=      5-min Rain = 0
KVP1 070626Z 00008KT M04/M12 A3041 RMK A01 T10441115  RH  058%=      5-min Rain = 0
KVP1 070627Z 00008KT M04/M12 A3041 RMK A01 T10441115  RH  058%=      5-min Rain = 0
KVP1 070628Z 00007KT M04/M11 A3041 RMK A01 T10431114  RH  058%=      5-min Rain = 0
KVP1 070629Z 00008KT M04/M11 A3041 RMK A01 T10431114  RH  057%=      5-min Rain = 0
KVP1 070630Z 00008KT M04/M12 A3041 RMK A01 T10431115  RH  057%=      5-min Rain = 0
KVP1 070631Z 01007KT M04/M11 A3041 RMK A01 T10421114  RH  057%=      5-min Rain = 0
KVP1 070632Z 00007KT M04/M11 A3041 RMK A01 T10391112  RH  057%=      5-min Rain = 0
KVP1 070633Z 01008KT M04/M11 A3041 RMK A01 T10381112  RH  056%=      5-min Rain = 0
KVP1 070634Z 01007KT M04/M11 A3041 RMK A01 T10361113  RH  055%=      5-min Rain = 0
KVP1 070635Z 00007KT M04/M11 A3041 RMK A01 T10351113  RH  055%=      5-min Rain = 0
KVP1 070636Z 01007KT M04/M11 A3041 RMK A01 T10361114  RH  055%=      5-min Rain = 0
KVP1 070637Z 01007KT M04/M12 A3041 RMK A01 T10381116  RH  055%=      5-min Rain = 0
KVP1 070638Z 01007KT M04/M12 A3041 RMK A01 T10391116  RH  055%=      5-min Rain = 0
KVP1 070639Z 00007KT M04/M12 A3041 RMK A01 T10411116  RH  056%=      5-min Rain = 0
KVP1 070640Z 01007KT M04/M12 A3041 RMK A01 T10431117  RH  056%=      5-min Rain = 0
KVP1 070641Z 01007KT M04/M12 A3041 RMK A01 T10441117  RH  057%=      5-min Rain = 0
KVP1 070642Z 01007KT M04/M11 A3041 RMK A01 T10411114  RH  057%=      5-min Rain = 0
KVP1 070643Z 00006KT M04/M11 A3041 RMK A01 T10401114  RH  057%=      5-min Rain = 0
KVP1 070644Z 01007KT M04/M12 A3041 RMK A01 T10431117  RH  057%=      5-min Rain = 0
KVP1 070645Z 00007KT M05/M12 A3041 RMK A01 T10451117  RH  057%=      5-min Rain = 0
KVP1 070646Z 00008KT M05/M12 A3041 RMK A01 T10461117  RH  058%=      5-min Rain = 0
KVP1 070647Z 00008KT M05/M12 A3041 RMK A01 T10461115  RH  058%=      5-min Rain = 0
KVP1 070648Z 01009KT M05/M12 A3041 RMK A01 T10451115  RH  058%=      5-min Rain = 0
KVP1 070649Z 01009KT M04/M11 A3041 RMK A01 T10421113  RH  058%=      5-min Rain = 0
KVP1 070650Z 01007KT M04/M11 A3041 RMK A01 T10391112  RH  057%=      5-min Rain = 0
KVP1 070651Z 01008KT M04/M11 A3041 RMK A01 T10391113  RH  056%=      5-min Rain = 0
KVP1 070652Z 00008KT M04/M11 A3041 RMK A01 T10381114  RH  056%=      5-min Rain = 0
KVP1 070653Z 00007KT M04/M11 A3041 RMK A01 T10371114  RH  055%=      5-min Rain = 0
KVP1 070654Z 00007KT M04/M11 A3041 RMK A01 T10371114  RH  055%=      5-min Rain = 0
KVP1 070655Z 00007KT M04/M11 A3041 RMK A01 T10381114  RH  055%=      5-min Rain = 0
KVP1 070656Z 00007KT M04/M12 A3041 RMK A01 T10391115  RH  055%=      5-min Rain = 0
KVP1 070657Z 36008KT M04/M12 A3041 RMK A01 T10391115  RH  056%=      5-min Rain = 0
KVP1 070658Z 36008KT M04/M12 A3041 RMK A01 T10401115  RH  056%=      5-min Rain = 0
KVP1 070659Z 36008KT M04/M11 A3041 RMK A01 T10401114  RH  056%=      5-min Rain = 0
KVP1 070700Z 36009KT M04/M11 A3041 RMK A01 T10401114  RH  056%=      5-min Rain = 0
KVP1 070701Z 35008KT M04/M11 A3041 RMK A01 T10401114  RH  056%=      5-min Rain = 0
KVP1 070702Z 35008KT M04/M12 A3041 RMK A01 T10411115  RH  056%=      5-min Rain = 0
KVP1 070703Z 36008KT M04/M12 A3041 RMK A01 T10421115  RH  057%=      5-min Rain = 0
KVP1 070704Z 36008KT M04/M11 A3041 RMK A01 T10421114  RH  057%=      5-min Rain = 0
KVP1 070705Z 36008KT M04/M11 A3041 RMK A01 T10431114  RH  057%=      5-min Rain = 0
KVP1 070706Z 36008KT M04/M11 A3041 RMK A01 T10431114  RH  058%=      5-min Rain = 0
KVP1 070707Z 36008KT M04/M11 A3041 RMK A01 T10431114  RH  058%=      5-min Rain = 0
KVP1 070708Z 36008KT M04/M11 A3041 RMK A01 T10431114  RH  058%=      5-min Rain = 0
KVP1 070709Z 36008KT M04/M11 A3041 RMK A01 T10431114  RH  058%=      5-min Rain = 0
KVP1 070710Z 35008KT M04/M11 A3041 RMK A01 T10431114  RH  058%=      5-min Rain = 0
KVP1 070711Z 35007KT M05/M12 A3041 RMK A01 T10451115  RH  058%=      5-min Rain = 0
KVP1 070712Z 35007KT M05/M12 A3041 RMK A01 T10461115  RH  059%=      5-min Rain = 0
KVP1 070713Z 36008KT M05/M12 A3041 RMK A01 T10481115  RH  059%=      5-min Rain = 0
KVP1 070714Z 36008KT M05/M12 A3041 RMK A01 T10491116  RH  060%=      5-min Rain = 0
KVP1 070715Z 36008KT M05/M12 A3041 RMK A01 T10511116  RH  060%=      5-min Rain = 0
KVP1 070716Z 35009KT M05/M12 A3041 RMK A01 T10511115  RH  061%=      5-min Rain = 0
KVP1 070717Z 36008KT M05/M12 A3041 RMK A01 T10521115  RH  061%=      5-min Rain = 0
KVP1 070718Z 35008KT M05/M12 A3041 RMK A01 T10521115  RH  062%=      5-min Rain = 0
KVP1 070719Z 36008KT M05/M11 A3041 RMK A01 T10521114  RH  062%=      5-min Rain = 0
KVP1 070720Z 00008KT M05/M11 A3041 RMK A01 T10521114  RH  062%=      5-min Rain = 0
KVP1 070721Z 36008KT M05/M11 A3041 RMK A01 T10501113  RH  062%=      5-min Rain = 0
KVP1 070722Z 00008KT M05/M11 A3041 RMK A01 T10481112  RH  061%=      5-min Rain = 0
KVP1 070723Z 36008KT M05/M11 A3041 RMK A01 T10471112  RH  061%=      5-min Rain = 0
KVP1 070724Z 36009KT M05/M11 A3041 RMK A01 T10461112  RH  060%=      5-min Rain = 0
KVP1 070725Z 36008KT M04/M11 A3041 RMK A01 T10441112  RH  059%=      5-min Rain = 0
KVP1 070726Z 00008KT M04/M11 A3041 RMK A01 T10431111  RH  059%=      5-min Rain = 0
KVP1 070727Z 00008KT M04/M11 A3041 RMK A01 T10421111  RH  059%=      5-min Rain = 0
KVP1 070728Z 00008KT M04/M11 A3041 RMK A01 T10421111  RH  058%=      5-min Rain = 0
KVP1 070729Z 00008KT M04/M11 A3041 RMK A01 T10421111  RH  058%=      5-min Rain = 0
KVP1 070730Z 00008KT M04/M11 A3041 RMK A01 T10411111  RH  058%=      5-min Rain = 0
KVP1 070731Z 00008KT M04/M11 A3041 RMK A01 T10411112  RH  058%=      5-min Rain = 0
KVP1 070732Z 00007KT M04/M11 A3041 RMK A01 T10411112  RH  058%=      5-min Rain = 0
KVP1 070733Z 00007KT M04/M11 A3041 RMK A01 T10401112  RH  058%=      5-min Rain = 0
KVP1 070734Z 01007KT M04/M11 A3041 RMK A01 T10411112  RH  058%=      5-min Rain = 0
KVP1 070735Z 00008KT M04/M11 A3041 RMK A01 T10411112  RH  058%=      5-min Rain = 0
KVP1 070736Z 01007KT M04/M11 A3041 RMK A01 T10401112  RH  058%=      5-min Rain = 0
KVP1 070737Z 00007KT M04/M11 A3041 RMK A01 T10391111  RH  057%=      5-min Rain = 0
KVP1 070738Z 00007KT M04/M11 A3041 RMK A01 T10381111  RH  057%=      5-min Rain = 0
KVP1 070739Z 01008KT M04/M11 A3041 RMK A01 T10381111  RH  057%=      5-min Rain = 0
KVP1 070740Z 01008KT M04/M11 A3041 RMK A01 T10381111  RH  057%=      5-min Rain = 0
KVP1 070741Z 00009KT M04/M11 A3041 RMK A01 T10381111  RH  057%=      5-min Rain = 0
KVP1 070742Z 01008KT M04/M11 A3041 RMK A01 T10361110  RH  057%=      5-min Rain = 0
KVP1 070743Z 01008KT M04/M11 A3041 RMK A01 T10361110  RH  056%=      5-min Rain = 0
KVP1 070744Z 01009KT M04/M11 A3041 RMK A01 T10351111  RH  056%=      5-min Rain = 0
KVP1 070745Z 01009KT M03/M11 A3041 RMK A01 T10341110  RH  056%=      5-min Rain = 0
KVP1 070746Z 01009KT M03/M11 A3041 RMK A01 T10341111  RH  056%=      5-min Rain = 0
KVP1 070747Z 00008KT M03/M11 A3041 RMK A01 T10341111  RH  055%=      5-min Rain = 0
KVP1 070748Z 00009KT M03/M11 A3041 RMK A01 T10341111  RH  055%=      5-min Rain = 0
KVP1 070749Z 01009KT M03/M11 A3041 RMK A01 T10341111  RH  055%=      5-min Rain = 0
KVP1 070750Z 01009KT M03/M11 A3041 RMK A01 T10331111  RH  055%=      5-min Rain = 0
KVP1 070751Z 00008KT M03/M11 A3041 RMK A01 T10331111  RH  055%=      5-min Rain = 0
KVP1 070752Z 00009KT M03/M11 A3041 RMK A01 T10341110  RH  055%=      5-min Rain = 0
KVP1 070753Z 01008KT M03/M11 A3041 RMK A01 T10341110  RH  055%=      5-min Rain = 0
KVP1 070754Z 01007KT M03/M11 A3041 RMK A01 T10341110  RH  056%=      5-min Rain = 0
KVP1 070755Z 01007KT M04/M11 A3041 RMK A01 T10351111  RH  056%=      5-min Rain = 0
KVP1 070756Z 01007KT M04/M11 A3041 RMK A01 T10371110  RH  057%=      5-min Rain = 0
KVP1 070757Z 00007KT M04/M11 A3041 RMK A01 T10371110  RH  057%=      5-min Rain = 0
KVP1 070758Z 00007KT M04/M11 A3041 RMK A01 T10371109  RH  057%=      5-min Rain = 0
KVP1 070759Z 00007KT M04/M11 A3041 RMK A01 T10381110  RH  058%=      5-min Rain = 0
KVP1 070800Z 00007KT M04/M11 A3041 RMK A01 T10391110  RH  058%=      5-min Rain = 0
KVP1 070801Z 00007KT M04/M11 A3041 RMK A01 T10401110  RH  058%=      5-min Rain = 0
KVP1 070802Z 01007KT M04/M11 A3041 RMK A01 T10401109  RH  059%=      5-min Rain = 0
KVP1 070803Z 00007KT M04/M11 A3041 RMK A01 T10401109  RH  059%=      5-min Rain = 0
KVP1 070804Z 00008KT M04/M11 A3041 RMK A01 T10401109  RH  059%=      5-min Rain = 0
KVP1 070805Z 00007KT M04/M11 A3042 RMK A01 T10411109  RH  059%=      5-min Rain = 0
KVP1 070806Z 00007KT M04/M11 A3042 RMK A01 T10411109  RH  059%=      5-min Rain = 0
KVP1 070807Z 36007KT M04/M11 A3042 RMK A01 T10421109  RH  059%=      5-min Rain = 0
KVP1 070808Z 36007KT M04/M11 A3042 RMK A01 T10431110  RH  060%=      5-min Rain = 0
KVP1 070809Z 36007KT M05/M11 A3042 RMK A01 T10461113  RH  060%=      5-min Rain = 0
KVP1 070810Z 36007KT M05/M12 A3042 RMK A01 T10541119  RH  060%=      5-min Rain = 0
KVP1 070811Z 36008KT M06/M12 A3042 RMK A01 T10601121  RH  062%=      5-min Rain = 0
KVP1 070812Z 00007KT M06/M12 A3042 RMK A01 T10601117  RH  064%=      5-min Rain = 0
KVP1 070813Z 00007KT M06/M11 A3042 RMK A01 T10561113  RH  064%=      5-min Rain = 0
KVP1 070814Z 00009KT M05/M11 A3042 RMK A01 T10531111  RH  063%=      5-min Rain = 0
KVP1 070815Z 00008KT M05/M11 A3042 RMK A01 T10491110  RH  062%=      5-min Rain = 0
KVP1 070816Z 00008KT M05/M11 A3042 RMK A01 T10471111  RH  061%=      5-min Rain = 0
KVP1 070817Z 00008KT M05/M11 A3042 RMK A01 T10461112  RH  060%=      5-min Rain = 0
KVP1 070818Z 01008KT M04/M11 A3042 RMK A01 T10441112  RH  059%=      5-min Rain = 0
KVP1 070819Z 00008KT M04/M11 A3042 RMK A01 T10421112  RH  058%=      5-min Rain = 0
KVP1 070820Z 01008KT M04/M11 A3042 RMK A01 T10401111  RH  058%=      5-min Rain = 0
KVP1 070821Z 00008KT M04/M11 A3042 RMK A01 T10381111  RH  057%=      5-min Rain = 0
KVP1 070822Z 01008KT M04/M11 A3042 RMK A01 T10371110  RH  057%=      5-min Rain = 0
KVP1 070823Z 00008KT M04/M11 A3042 RMK A01 T10361110  RH  057%=      5-min Rain = 0
KVP1 070824Z 01007KT M04/M11 A3042 RMK A01 T10351109  RH  057%=      5-min Rain = 0
KVP1 070825Z 00007KT M03/M11 A3042 RMK A01 T10341108  RH  056%=      5-min Rain = 0
KVP1 070826Z 01007KT M03/M11 A3042 RMK A01 T10331108  RH  056%=      5-min Rain = 0
KVP1 070827Z 01008KT M03/M11 A3042 RMK A01 T10331107  RH  056%=      5-min Rain = 0
KVP1 070828Z 01008KT M03/M11 A3042 RMK A01 T10321107  RH  056%=      5-min Rain = 0
KVP1 070829Z 01008KT M03/M11 A3042 RMK A01 T10311107  RH  056%=      5-min Rain = 0
KVP1 070830Z 01007KT M03/M11 A3042 RMK A01 T10311107  RH  056%=      5-min Rain = 0
KVP1 070831Z 01007KT M03/M11 A3042 RMK A01 T10301107  RH  055%=      5-min Rain = 0
KVP1 070832Z 01008KT M03/M11 A3042 RMK A01 T10311107  RH  055%=      5-min Rain = 0
KVP1 070833Z 01007KT M03/M11 A3042 RMK A01 T10311108  RH  055%=      5-min Rain = 0
KVP1 070834Z 01009KT M03/M11 A3042 RMK A01 T10311108  RH  055%=      5-min Rain = 0
KVP1 070835Z 01010KT M03/M11 A3042 RMK A01 T10301108  RH  055%=      5-min Rain = 0
KVP1 070836Z 01010KT M03/M11 A3042 RMK A01 T10281108  RH  054%=      5-min Rain = 0
KVP1 070837Z 01010KT M03/M11 A3042 RMK A01 T10271109  RH  053%=      5-min Rain = 0
KVP1 070838Z 01011KT M03/M11 A3042 RMK A01 T10261109  RH  053%=      5-min Rain = 0
KVP1 070839Z 01010KT M03/M11 A3042 RMK A01 T10251109  RH  052%=      5-min Rain = 0
KVP1 070840Z 01009KT M02/M11 A3042 RMK A01 T10241109  RH  052%=      5-min Rain = 0
KVP1 070841Z 01010KT M03/M11 A3042 RMK A01 T10251109  RH  052%=      5-min Rain = 0
KVP1 070842Z 02010KT M02/M11 A3042 RMK A01 T10241109  RH  052%=      5-min Rain = 0
KVP1 070843Z 01010KT M03/M11 A3042 RMK A01 T10251110  RH  052%=      5-min Rain = 0
KVP1 070844Z 02010KT M03/M11 A3042 RMK A01 T10251110  RH  052%=      5-min Rain = 0
KVP1 070845Z 01009G14KT M03/M11 A3042 RMK A01 T10251110  RH  052%=      5-min Rain = 0
KVP1 070846Z 01009KT M03/M11 A3042 RMK A01 T10251110  RH  052%=      5-min Rain = 0
KVP1 070847Z 01010KT M03/M11 A3043 RMK A01 T10261110  RH  052%=      5-min Rain = 0
KVP1 070848Z 01008KT M03/M11 A3043 RMK A01 T10271110  RH  053%=      5-min Rain = 0
KVP1 070849Z 01008KT M03/M11 A3043 RMK A01 T10281111  RH  053%=      5-min Rain = 0
KVP1 070850Z 01009KT M03/M11 A3043 RMK A01 T10291111  RH  053%=      5-min Rain = 0
KVP1 070851Z 00007KT M03/M11 A3043 RMK A01 T10291110  RH  053%=      5-min Rain = 0
KVP1 070852Z 36008KT M03/M11 A3043 RMK A01 T10301111  RH  054%=      5-min Rain = 0
KVP1 070853Z 35008KT M03/M11 A3043 RMK A01 T10311111  RH  054%=      5-min Rain = 0
KVP1 070854Z 35008KT M03/M11 A3043 RMK A01 T10331111  RH  055%=      5-min Rain = 0
KVP1 070855Z 35009KT M03/M11 A3043 RMK A01 T10341111  RH  055%=      5-min Rain = 0
KVP1 070856Z 35010KT M03/M11 A3043 RMK A01 T10341110  RH  056%=      5-min Rain = 0
KVP1 070857Z 36011KT M04/M11 A3044 RMK A01 T10351111  RH  056%=      5-min Rain = 0
KVP1 070858Z 36009KT M04/M11 A3044 RMK A01 T10351110  RH  056%=      5-min Rain = 0
KVP1 070859Z 01009KT M04/M11 A3044 RMK A01 T10351110  RH  056%=      5-min Rain = 0
KVP1 070900Z 00009KT M04/M11 A3044 RMK A01 T10351110  RH  056%=      5-min Rain = 0
KVP1 070901Z 00008KT M04/M11 A3044 RMK A01 T10351109  RH  056%=      5-min Rain = 0
KVP1 070902Z 01010G16KT M04/M11 A3044 RMK A01 T10351108  RH  057%=      5-min Rain = 0
KVP1 070903Z 01010KT M03/M11 A3044 RMK A01 T10341106  RH  058%=      5-min Rain = 0
KVP1 070904Z 01011KT M03/M10 A3044 RMK A01 T10321104  RH  058%=      5-min Rain = 0
KVP1 070905Z 01010KT M03/M10 A3044 RMK A01 T10321103  RH  058%=      5-min Rain = 0
KVP1 070906Z 01011KT M03/M10 A3044 RMK A01 T10321103  RH  058%=      5-min Rain = 0
KVP1 070907Z 01010KT M03/M10 A3044 RMK A01 T10321103  RH  058%=      5-min Rain = 0
KVP1 070908Z 01010KT M03/M10 A3044 RMK A01 T10321102  RH  058%=      5-min Rain = 0
KVP1 070909Z 01011KT M03/M10 A3044 RMK A01 T10331102  RH  059%=      5-min Rain = 0
KVP1 070910Z 01010KT M03/M10 A3044 RMK A01 T10331101  RH  059%=      5-min Rain = 0
KVP1 070911Z 01009KT M03/M10 A3044 RMK A01 T10331101  RH  060%=      5-min Rain = 0
KVP1 070912Z 01010KT M03/M10 A3044 RMK A01 T10341100  RH  060%=      5-min Rain = 0
KVP1 070913Z 00010KT M03/M10 A3044 RMK A01 T10341100  RH  061%=      5-min Rain = 0
KVP1 070914Z 00010KT M04/M10 A3044 RMK A01 T10351100  RH  061%=      5-min Rain = 0
KVP1 070915Z 00010KT M04/M10 A3044 RMK A01 T10361099  RH  061%=      5-min Rain = 0
KVP1 070916Z 01011KT M04/M10 A3044 RMK A01 T10361098  RH  062%=      5-min Rain = 0
KVP1 070917Z 01010KT M04/M10 A3044 RMK A01 T10361098  RH  062%=      5-min Rain = 0
KVP1 070918Z 00008KT M04/M10 A3044 RMK A01 T10361098  RH  062%=      5-min Rain = 0
KVP1 070919Z 01010KT M04/M10 A3044 RMK A01 T10361097  RH  062%=      5-min Rain = 0
KVP1 070920Z 01010KT M04/M10 A3044 RMK A01 T10371097  RH  063%=      5-min Rain = 0
KVP1 070921Z 01012KT M04/M10 A3044 RMK A01 T10371096  RH  063%=      5-min Rain = 0
KVP1 070922Z 01011KT M04/M10 A3044 RMK A01 T10371095  RH  064%=      5-min Rain = 0
KVP1 070923Z 00012KT M04/M09 A3044 RMK A01 T10361094  RH  064%=      5-min Rain = 0
KVP1 070924Z 01010KT M04/M09 A3044 RMK A01 T10361093  RH  064%=      5-min Rain = 0
KVP1 070925Z 01009KT M04/M09 A3044 RMK A01 T10361093  RH  065%=      5-min Rain = 0
KVP1 070926Z 01009KT M04/M09 A3044 RMK A01 T10371094  RH  065%=      5-min Rain = 0
KVP1 070927Z 01009KT M04/M09 A3044 RMK A01 T10381094  RH  065%=      5-min Rain = 0
KVP1 070928Z 01008KT M04/M09 A3045 RMK A01 T10391094  RH  065%=      5-min Rain = 0
KVP1 070929Z 01009KT M04/M09 A3045 RMK A01 T10391094  RH  066%=      5-min Rain = 0
KVP1 070930Z 01010KT M04/M09 A3045 RMK A01 T10401093  RH  066%=      5-min Rain = 0
KVP1 070931Z 01010KT M04/M09 A3045 RMK A01 T10401093  RH  067%=      5-min Rain = 0
KVP1 070932Z 01011KT M04/M09 A3045 RMK A01 T10401093  RH  067%=      5-min Rain = 0
KVP1 070933Z 01011KT M04/M09 A3045 RMK A01 T10401092  RH  067%=      5-min Rain = 0
KVP1 070934Z 01011KT M04/M09 A3045 RMK A01 T10401092  RH  067%=      5-min Rain = 0
KVP1 070935Z 01012KT M04/M09 A3045 RMK A01 T10401092  RH  067%=      5-min Rain = 0
KVP1 070936Z 01012KT M04/M09 A3045 RMK A01 T10401091  RH  068%=      5-min Rain = 0
KVP1 070937Z 00009KT M04/M09 A3045 RMK A01 T10401090  RH  068%=      5-min Rain = 0
KVP1 070938Z 01011KT M04/M09 A3045 RMK A01 T10401091  RH  068%=      5-min Rain = 0
KVP1 070939Z 00012KT M04/M09 A3045 RMK A01 T10411091  RH  068%=      5-min Rain = 0
KVP1 070940Z 01011KT M04/M09 A3045 RMK A01 T10411090  RH  069%=      5-min Rain = 0
KVP1 070941Z 00012KT M04/M09 A3045 RMK A01 T10411090  RH  069%=      5-min Rain = 0
KVP1 070942Z 01013G18KT M04/M09 A3045 RMK A01 T10411090  RH  069%=      5-min Rain = 0
KVP1 070943Z 01012KT M04/M09 A3045 RMK A01 T10421090  RH  069%=      5-min Rain = 0
KVP1 070944Z 01011KT M04/M09 A3045 RMK A01 T10421090  RH  069%=      5-min Rain = 0
KVP1 070945Z 00011KT M04/M09 A3045 RMK A01 T10421089  RH  069%=      5-min Rain = 0
KVP1 070946Z 01013KT M04/M09 A3045 RMK A01 T10411089  RH  070%=      5-min Rain = 0
KVP1 070947Z 01012KT M04/M09 A3045 RMK A01 T10411088  RH  070%=      5-min Rain = 0
KVP1 070948Z 01011KT M04/M09 A3045 RMK A01 T10421089  RH  070%=      5-min Rain = 0
KVP1 070949Z 01013KT M04/M09 A3045 RMK A01 T10421088  RH  070%=      5-min Rain = 0
KVP1 070950Z 01012KT M04/M09 A3045 RMK A01 T10411088  RH  070%=      5-min Rain = 0
KVP1 070951Z 01012KT M04/M09 A3045 RMK A01 T10411088  RH  070%=      5-min Rain = 0
KVP1 070952Z 01012KT M04/M09 A3045 RMK A01 T10411088  RH  070%=      5-min Rain = 0
KVP1 070953Z 01012KT M04/M09 A3045 RMK A01 T10411088  RH  070%=      5-min Rain = 0
KVP1 070954Z 01011KT M04/M09 A3045 RMK A01 T10411088  RH  070%=      5-min Rain = 0
KVP1 070955Z 01011KT M04/M09 A3045 RMK A01 T10411088  RH  070%=      5-min Rain = 0
KVP1 070956Z 01010KT M04/M09 A3045 RMK A01 T10411088  RH  070%=      5-min Rain = 0
KVP1 070957Z 01012G17KT M04/M09 A3045 RMK A01 T10421089  RH  070%=      5-min Rain = 0
KVP1 070958Z 01013KT M04/M09 A3045 RMK A01 T10421089  RH  070%=      5-min Rain = 0
KVP1 070959Z 01014KT M04/M09 A3045 RMK A01 T10421090  RH  069%=      5-min Rain = 0
KVP1 071000Z 01013KT M04/M09 A3045 RMK A01 T10411091  RH  068%=      5-min Rain = 0
KVP1 071001Z 01010KT M04/M09 A3045 RMK A01 T10401092  RH  068%=      5-min Rain = 0
KVP1 071002Z 01013KT M04/M09 A3045 RMK A01 T10411092  RH  067%=      5-min Rain = 0
KVP1 071003Z 01013KT M04/M09 A3045 RMK A01 T10411093  RH  067%=      5-min Rain = 0
KVP1 071004Z 01012KT M04/M09 A3045 RMK A01 T10411093  RH  067%=      5-min Rain = 0
KVP1 071005Z 01012KT M04/M09 A3045 RMK A01 T10411094  RH  067%=      5-min Rain = 0
KVP1 071006Z 01013KT M04/M09 A3045 RMK A01 T10411094  RH  067%=      5-min Rain = 0
KVP1 071007Z 01010KT M04/M09 A3045 RMK A01 T10411094  RH  067%=      5-min Rain = 0
KVP1 071008Z 01011KT M04/M09 A3045 RMK A01 T10421094  RH  067%=      5-min Rain = 0
KVP1 071009Z 01011KT M04/M09 A3045 RMK A01 T10411094  RH  067%=      5-min Rain = 0
KVP1 071010Z 00011KT M04/M09 A3045 RMK A01 T10421094  RH  067%=      5-min Rain = 0
KVP1 071011Z 01011KT M04/M10 A3045 RMK A01 T10421095  RH  067%=      5-min Rain = 0
KVP1 071012Z 01015KT M04/M10 A3045 RMK A01 T10411095  RH  066%=      5-min Rain = 0
KVP1 071013Z 01014KT M04/M10 A3045 RMK A01 T10411097  RH  065%=      5-min Rain = 0
KVP1 071014Z 00013G18KT M04/M10 A3045 RMK A01 T10411098  RH  065%=      5-min Rain = 0
KVP1 071015Z 01014KT M04/M10 A3045 RMK A01 T10411099  RH  064%=      5-min Rain = 0
KVP1 071016Z 01012KT M04/M10 A3045 RMK A01 T10401100  RH  063%=      5-min Rain = 0
KVP1 071017Z 01014KT M04/M10 A3045 RMK A01 T10411101  RH  063%=      5-min Rain = 0
KVP1 071018Z 02013KT M04/M10 A3045 RMK A01 T10411101  RH  063%=      5-min Rain = 0
KVP1 071019Z 01011G18KT M04/M10 A3045 RMK A01 T10411102  RH  062%=      5-min Rain = 0
KVP1 071020Z 02013KT M04/M10 A3045 RMK A01 T10411103  RH  062%=      5-min Rain = 0
KVP1 071021Z 01013KT M04/M10 A3045 RMK A01 T10411103  RH  062%=      5-min Rain = 0
KVP1 071022Z 02013KT M04/M10 A3045 RMK A01 T10411104  RH  062%=      5-min Rain = 0
KVP1 071023Z 01012KT M04/M10 A3045 RMK A01 T10411104  RH  062%=      5-min Rain = 0
KVP1 071024Z 01012KT M04/M10 A3045 RMK A01 T10421104  RH  062%=      5-min Rain = 0
KVP1 071025Z 01011KT M04/M11 A3045 RMK A01 T10421105  RH  061%=      5-min Rain = 0
KVP1 071026Z 01013G18KT M04/M11 A3045 RMK A01 T10421106  RH  061%=      5-min Rain = 0
KVP1 071027Z 02014KT M04/M11 A3045 RMK A01 T10421106  RH  061%=      5-min Rain = 0
KVP1 071028Z 01012KT M04/M11 A3045 RMK A01 T10421107  RH  061%=      5-min Rain = 0
KVP1 071029Z 01016KT M04/M11 A3045 RMK A01 T10421108  RH  060%=      5-min Rain = 0
KVP1 071030Z 02012KT M04/M11 A3045 RMK A01 T10421108  RH  060%=      5-min Rain = 0
KVP1 071031Z 02012KT M04/M11 A3045 RMK A01 T10421109  RH  060%=      5-min Rain = 0
KVP1 071032Z 01012KT M04/M11 A3045 RMK A01 T10421108  RH  060%=      5-min Rain = 0
KVP1 071033Z 01012KT M04/M11 A3045 RMK A01 T10421108  RH  060%=      5-min Rain = 0
KVP1 071034Z 01014G19KT M04/M11 A3045 RMK A01 T10431109  RH  060%=      5-min Rain = 0
KVP1 071035Z 01013G18KT M04/M11 A3045 RMK A01 T10431109  RH  060%=      5-min Rain = 0
KVP1 071036Z 02014KT M04/M11 A3045 RMK A01 T10421109  RH  060%=      5-min Rain = 0
KVP1 071037Z 01012KT M04/M11 A3045 RMK A01 T10421109  RH  060%=      5-min Rain = 0
KVP1 071038Z 02013KT M04/M11 A3045 RMK A01 T10421109  RH  060%=      5-min Rain = 0
KVP1 071039Z 02012KT M04/M11 A3045 RMK A01 T10431109  RH  060%=      5-min Rain = 0
KVP1 071040Z 02012KT M04/M11 A3045 RMK A01 T10431108  RH  060%=      5-min Rain = 0
KVP1 071041Z 02011KT M04/M11 A3045 RMK A01 T10431108  RH  060%=      5-min Rain = 0
KVP1 071042Z 02012G17KT M04/M11 A3045 RMK A01 T10431108  RH  060%=      5-min Rain = 0
KVP1 071043Z 02012G18KT M04/M11 A3045 RMK A01 T10431108  RH  060%=      5-min Rain = 0
KVP1 071044Z 02015KT M04/M11 A3045 RMK A01 T10431108  RH  060%=      5-min Rain = 0
KVP1 071045Z 01016KT M04/M11 A3045 RMK A01 T10431109  RH  060%=      5-min Rain = 0
KVP1 071046Z 01013KT M04/M11 A3045 RMK A01 T10431109  RH  060%=      5-min Rain = 0
KVP1 071047Z 01014G19KT M04/M11 A3045 RMK A01 T10421108  RH  060%=      5-min Rain = 0
KVP1 071048Z 01013KT M04/M11 A3045 RMK A01 T10431109  RH  060%=      5-min Rain = 0
KVP1 071049Z 00010G15KT M04/M11 A3045 RMK A01 T10431109  RH  060%=      5-min Rain = 0
KVP1 071050Z 01012G17KT M04/M11 A3045 RMK A01 T10421109  RH  060%=      5-min Rain = 0
KVP1 071051Z 01011KT M04/M11 A3045 RMK A01 T10421109  RH  060%=      5-min Rain = 0
KVP1 071052Z 01011KT M04/M11 A3045 RMK A01 T10431109  RH  060%=      5-min Rain = 0
KVP1 071053Z 01012G17KT M04/M11 A3045 RMK A01 T10431109  RH  060%=      5-min Rain = 0
KVP1 071054Z 01013KT M04/M11 A3045 RMK A01 T10431109  RH  060%=      5-min Rain = 0
KVP1 071055Z 01013G19KT M04/M11 A3045 RMK A01 T10431110  RH  060%=      5-min Rain = 0
KVP1 071056Z 01014G19KT M04/M11 A3045 RMK A01 T10431110  RH  060%=      5-min Rain = 0
KVP1 071057Z 01012KT M04/M11 A3045 RMK A01 T10431110  RH  060%=      5-min Rain = 0
KVP1 071058Z 01013G18KT M04/M11 A3045 RMK A01 T10431109  RH  060%=      5-min Rain = 0
KVP1 071059Z 01012KT M04/M11 A3045 RMK A01 T10431109  RH  060%=      5-min Rain = 0
KVP1 071100Z 01014KT M04/M11 A3045 RMK A01 T10431109  RH  060%=      5-min Rain = 0
KVP1 071101Z 01012KT M04/M11 A3045 RMK A01 T10431108  RH  060%=      5-min Rain = 0
KVP1 071102Z 00013KT M04/M11 A3045 RMK A01 T10431108  RH  060%=      5-min Rain = 0
KVP1 071103Z 00013G19KT M04/M11 A3045 RMK A01 T10431108  RH  061%=      5-min Rain = 0
KVP1 071104Z 01014KT M04/M11 A3045 RMK A01 T10431108  RH  061%=      5-min Rain = 0
KVP1 071105Z 00013KT M04/M11 A3045 RMK A01 T10431108  RH  061%=      5-min Rain = 0
KVP1 071106Z 01012KT M04/M11 A3045 RMK A01 T10431108  RH  061%=      5-min Rain = 0
KVP1 071107Z 00014KT M04/M11 A3045 RMK A01 T10431108  RH  061%=      5-min Rain = 0
KVP1 071108Z 00012KT M04/M11 A3045 RMK A01 T10431107  RH  061%=      5-min Rain = 0
KVP1 071109Z 01013KT M04/M11 A3045 RMK A01 T10431107  RH  061%=      5-min Rain = 0
KVP1 071110Z 01012G17KT M04/M11 A3045 RMK A01 T10431107  RH  061%=      5-min Rain = 0
KVP1 071111Z 01013KT M04/M11 A3045 RMK A01 T10431107  RH  061%=      5-min Rain = 0
KVP1 071112Z 01012KT M04/M11 A3045 RMK A01 T10431107  RH  061%=      5-min Rain = 0
KVP1 071113Z 01013KT M04/M11 A3045 RMK A01 T10431107  RH  061%=      5-min Rain = 0
KVP1 071114Z 01013KT M04/M11 A3045 RMK A01 T10431107  RH  061%=      5-min Rain = 0
KVP1 071115Z 01013KT M04/M11 A3045 RMK A01 T10441107  RH  061%=      5-min Rain = 0
KVP1 071116Z 01011KT M04/M11 A3045 RMK A01 T10431106  RH  061%=      5-min Rain = 0
KVP1 071117Z 01013KT M04/M11 A3045 RMK A01 T10431106  RH  061%=      5-min Rain = 0
KVP1 071118Z 01011KT M04/M11 A3045 RMK A01 T10431107  RH  061%=      5-min Rain = 0
KVP1 071119Z 01009KT M04/M11 A3045 RMK A01 T10431107  RH  061%=      5-min Rain = 0
KVP1 071120Z 01009KT M04/M11 A3045 RMK A01 T10441107  RH  061%=      5-min Rain = 0
KVP1 071121Z 01011KT M04/M11 A3045 RMK A01 T10441107  RH  062%=      5-min Rain = 0
KVP1 071122Z 00010KT M05/M11 A3045 RMK A01 T10451107  RH  062%=      5-min Rain = 0
KVP1 071123Z 00009KT M05/M11 A3045 RMK A01 T10451107  RH  062%=      5-min Rain = 0
KVP1 071124Z 01009KT M05/M11 A3045 RMK A01 T10451107  RH  062%=      5-min Rain = 0
KVP1 071125Z 01010KT M05/M11 A3045 RMK A01 T10451107  RH  062%=      5-min Rain = 0
KVP1 071126Z 01010KT M05/M11 A3045 RMK A01 T10451107  RH  062%=      5-min Rain = 0
KVP1 071127Z 00010KT M05/M11 A3045 RMK A01 T10451108  RH  062%=      5-min Rain = 0
KVP1 071128Z 01010KT M05/M11 A3045 RMK A01 T10451108  RH  061%=      5-min Rain = 0
KVP1 071129Z 01009KT M05/M11 A3045 RMK A01 T10451108  RH  061%=      5-min Rain = 0
KVP1 071130Z 01008KT M05/M11 A3045 RMK A01 T10451108  RH  061%=      5-min Rain = 0
KVP1 071131Z 01010KT M05/M11 A3045 RMK A01 T10451108  RH  061%=      5-min Rain = 0
KVP1 071132Z 01009KT M05/M11 A3046 RMK A01 T10451108  RH  061%=      5-min Rain = 0
KVP1 071133Z 01008KT M05/M11 A3046 RMK A01 T10451108  RH  061%=      5-min Rain = 0
KVP1 071134Z 01010KT M05/M11 A3046 RMK A01 T10451108  RH  061%=      5-min Rain = 0
KVP1 071135Z 01009KT M05/M11 A3045 RMK A01 T10451108  RH  061%=      5-min Rain = 0
KVP1 071136Z 01009KT M05/M11 A3046 RMK A01 T10451109  RH  061%=      5-min Rain = 0
KVP1 071137Z 01008KT M05/M11 A3046 RMK A01 T10461109  RH  061%=      5-min Rain = 0
KVP1 071138Z 01007KT M05/M11 A3046 RMK A01 T10461109  RH  062%=      5-min Rain = 0
KVP1 071139Z 01007KT M05/M11 A3046 RMK A01 T10471109  RH  062%=      5-min Rain = 0
KVP1 071140Z 01008KT M05/M11 A3046 RMK A01 T10471108  RH  062%=      5-min Rain = 0
KVP1 071141Z 01006KT M05/M11 A3046 RMK A01 T10471109  RH  062%=      5-min Rain = 0
KVP1 071142Z 00005KT M05/M11 A3046 RMK A01 T10481109  RH  062%=      5-min Rain = 0
KVP1 071143Z 01004KT M05/M11 A3046 RMK A01 T10481109  RH  063%=      5-min Rain = 0
KVP1 071144Z 01004KT M05/M11 A3046 RMK A01 T10491109  RH  063%=      5-min Rain = 0
KVP1 071145Z 01005KT M05/M11 A3046 RMK A01 T10501109  RH  063%=      5-min Rain = 0
KVP1 071146Z 02005KT M05/M11 A3046 RMK A01 T10501109  RH  063%=      5-min Rain = 0
KVP1 071147Z 01004KT M05/M11 A3046 RMK A01 T10501109  RH  064%=      5-min Rain = 0
KVP1 071148Z 02006KT M05/M11 A3046 RMK A01 T10511109  RH  064%=      5-min Rain = 0
KVP1 071149Z 01006KT M05/M11 A3046 RMK A01 T10521109  RH  064%=      5-min Rain = 0
KVP1 071150Z 02005KT M05/M11 A3046 RMK A01 T10521108  RH  065%=      5-min Rain = 0
KVP1 071151Z 02005KT M05/M11 A3046 RMK A01 T10531108  RH  065%=      5-min Rain = 0
KVP1 071152Z 02005KT M05/M11 A3046 RMK A01 T10541109  RH  065%=      5-min Rain = 0
KVP1 071153Z 01005KT M06/M11 A3046 RMK A01 T10551108  RH  066%=      5-min Rain = 0
KVP1 071154Z 02006KT M06/M11 A3046 RMK A01 T10551107  RH  067%=      5-min Rain = 0
KVP1 071155Z 02006KT M06/M11 A3046 RMK A01 T10551107  RH  067%=      5-min Rain = 0
KVP1 071156Z 02006KT M06/M11 A3046 RMK A01 T10561106  RH  068%=      5-min Rain = 0
KVP1 071157Z 02006KT M06/M11 A3046 RMK A01 T10571107  RH  068%=      5-min Rain = 0
KVP1 071158Z 02005KT M06/M11 A3046 RMK A01 T10581107  RH  068%=      5-min Rain = 0
KVP1 071159Z 03005KT M06/M11 A3046 RMK A01 T10591108  RH  068%=      5-min Rain = 0
KVP1 071200Z 03004KT M06/M11 A3046 RMK A01 T10601109  RH  069%=      5-min Rain = 0
KVP1 071201Z 03005KT M06/M11 A3046 RMK A01 T10621109  RH  069%=      5-min Rain = 0
KVP1 071202Z 02005KT M06/M11 A3046 RMK A01 T10621108  RH  070%=      5-min Rain = 0
KVP1 071203Z 02006KT M06/M11 A3046 RMK A01 T10631108  RH  070%=      5-min Rain = 0
KVP1 071204Z 02007KT M06/M11 A3046 RMK A01 T10631108  RH  071%=      5-min Rain = 0
KVP1 071205Z 02006KT M06/M11 A3046 RMK A01 T10631107  RH  071%=      5-min Rain = 0
KVP1 071206Z 02005KT M06/M11 A3046 RMK A01 T10641107  RH  071%=      5-min Rain = 0
KVP1 071207Z 02005KT M06/M11 A3046 RMK A01 T10641108  RH  071%=      5-min Rain = 0
KVP1 071208Z 01005KT M07/M11 A3046 RMK A01 T10651107  RH  072%=      5-min Rain = 0
KVP1 071209Z 02005KT M07/M11 A3046 RMK A01 T10651107  RH  072%=      5-min Rain = 0
KVP1 071210Z 02005KT M07/M11 A3046 RMK A01 T10651107  RH  072%=      5-min Rain = 0
KVP1 071211Z 02005KT M07/M11 A3046 RMK A01 T10661107  RH  073%=      5-min Rain = 0
KVP1 071212Z 02005KT M07/M11 A3046 RMK A01 T10661107  RH  073%=      5-min Rain = 0
KVP1 071213Z 02005KT M07/M11 A3046 RMK A01 T10661107  RH  073%=      5-min Rain = 0
KVP1 071214Z 02005KT M07/M11 A3046 RMK A01 T10661107  RH  073%=      5-min Rain = 0
KVP1 071215Z 01005KT M07/M11 A3046 RMK A01 T10661107  RH  073%=      5-min Rain = 0
KVP1 071216Z 01005KT M07/M11 A3046 RMK A01 T10661107  RH  072%=      5-min Rain = 0
KVP1 071217Z 01005KT M07/M11 A3046 RMK A01 T10661107  RH  072%=      5-min Rain = 0
KVP1 071218Z 01004KT M07/M11 A3046 RMK A01 T10661108  RH  072%=      5-min Rain = 0
KVP1 071219Z 01005KT M07/M11 A3046 RMK A01 T10671108  RH  072%=      5-min Rain = 0
KVP1 071220Z 01005KT M07/M11 A3046 RMK A01 T10671109  RH  072%=      5-min Rain = 0
KVP1 071221Z 01005KT M07/M11 A3046 RMK A01 T10671109  RH  072%=      5-min Rain = 0
KVP1 071222Z 02005KT M07/M11 A3047 RMK A01 T10681110  RH  072%=      5-min Rain = 0
KVP1 071223Z 01005KT M07/M11 A3047 RMK A01 T10681111  RH  072%=      5-min Rain = 0
KVP1 071224Z 01005KT M07/M11 A3047 RMK A01 T10681111  RH  072%=      5-min Rain = 0
KVP1 071225Z 01005KT M07/M11 A3047 RMK A01 T10681111  RH  072%=      5-min Rain = 0
KVP1 071226Z 01005KT M07/M11 A3047 RMK A01 T10691111  RH  072%=      5-min Rain = 0
KVP1 071227Z 01005KT M07/M11 A3047 RMK A01 T10691111  RH  072%=      5-min Rain = 0
KVP1 071228Z 01005KT M07/M11 A3047 RMK A01 T10691112  RH  072%=      5-min Rain = 0
KVP1 071229Z 01004KT M07/M11 A3047 RMK A01 T10701112  RH  072%=      5-min Rain = 0
KVP1 071230Z 01004KT M07/M11 A3047 RMK A01 T10701113  RH  072%=      5-min Rain = 0
KVP1 071231Z 01004KT M07/M11 A3047 RMK A01 T10711113  RH  072%=      5-min Rain = 0
KVP1 071232Z 01004KT M07/M11 A3047 RMK A01 T10721114  RH  072%=      5-min Rain = 0
KVP1 071233Z 01005KT M07/M11 A3047 RMK A01 T10721114  RH  072%=      5-min Rain = 0
KVP1 071234Z 01005KT M07/M12 A3047 RMK A01 T10741115  RH  072%=      5-min Rain = 0
KVP1 071235Z 01005KT M08/M12 A3047 RMK A01 T10751115  RH  073%=      5-min Rain = 0
KVP1 071236Z 02005KT M08/M12 A3047 RMK A01 T10761116  RH  073%=      5-min Rain = 0
KVP1 071237Z 01005KT M08/M12 A3047 RMK A01 T10761115  RH  074%=      5-min Rain = 0
KVP1 071238Z 01005KT M08/M12 A3047 RMK A01 T10761115  RH  074%=      5-min Rain = 0
KVP1 071239Z 01004KT M08/M12 A3047 RMK A01 T10771115  RH  074%=      5-min Rain = 0
KVP1 071240Z 01004KT M08/M12 A3047 RMK A01 T10781116  RH  074%=      5-min Rain = 0
KVP1 071241Z 01004KT M08/M12 A3047 RMK A01 T10791117  RH  074%=      5-min Rain = 0
KVP1 071242Z 36005KT M08/M12 A3047 RMK A01 T10801117  RH  075%=      5-min Rain = 0
KVP1 071243Z 00005KT M08/M12 A3047 RMK A01 T10801116  RH  075%=      5-min Rain = 0
KVP1 071244Z 00005KT M08/M11 A3047 RMK A01 T10791114  RH  076%=      5-min Rain = 0
KVP1 071245Z 01005KT M08/M11 A3047 RMK A01 T10781113  RH  076%=      5-min Rain = 0
KVP1 071246Z 00005KT M08/M11 A3047 RMK A01 T10771113  RH  075%=      5-min Rain = 0
KVP1 071247Z 00005KT M08/M11 A3047 RMK A01 T10761113  RH  075%=      5-min Rain = 0
KVP1 071248Z 00005KT M08/M11 A3047 RMK A01 T10761113  RH  074%=      5-min Rain = 0
KVP1 071249Z 00005KT M08/M11 A3047 RMK A01 T10751113  RH  074%=      5-min Rain = 0
KVP1 071250Z 00005KT M07/M11 A3047 RMK A01 T10741113  RH  074%=      5-min Rain = 0
KVP1 071251Z 01005KT M07/M11 A3047 RMK A01 T10741113  RH  074%=      5-min Rain = 0
KVP1 071252Z 01006KT M07/M11 A3047 RMK A01 T10731112  RH  073%=      5-min Rain = 0
KVP1 071253Z 00006KT M07/M11 A3047 RMK A01 T10721112  RH  073%=      5-min Rain = 0
KVP1 071254Z 36006KT M07/M11 A3047 RMK A01 T10721112  RH  073%=      5-min Rain = 0
KVP1 071255Z 00006KT M07/M11 A3047 RMK A01 T10711112  RH  072%=      5-min Rain = 0
KVP1 071256Z 00005KT M07/M11 A3047 RMK A01 T10701112  RH  072%=      5-min Rain = 0
KVP1 071257Z 00006KT M07/M11 A3047 RMK A01 T10701112  RH  072%=      5-min Rain = 0
KVP1 071258Z 00006KT M07/M11 A3047 RMK A01 T10701113  RH  071%=      5-min Rain = 0
KVP1 071259Z 00005KT M07/M11 A3047 RMK A01 T10691112  RH  071%=      5-min Rain = 0
KVP1 071300Z 00005KT M07/M11 A3047 RMK A01 T10681113  RH  071%=      5-min Rain = 0
KVP1 071301Z 01005KT M07/M11 A3047 RMK A01 T10691113  RH  071%=      5-min Rain = 0
KVP1 071302Z 00005KT M07/M11 A3047 RMK A01 T10691113  RH  071%=      5-min Rain = 0
KVP1 071303Z 01005KT M07/M11 A3047 RMK A01 T10681113  RH  071%=      5-min Rain = 0
KVP1 071304Z 01005KT M07/M11 A3047 RMK A01 T10681113  RH  070%=      5-min Rain = 0
KVP1 071305Z 01005KT M07/M11 A3047 RMK A01 T10691113  RH  070%=      5-min Rain = 0
KVP1 071306Z 00006KT M07/M11 A3047 RMK A01 T10691114  RH  070%=      5-min Rain = 0
KVP1 071307Z 36005KT M07/M11 A3047 RMK A01 T10681113  RH  070%=      5-min Rain = 0
KVP1 071308Z 36006KT M07/M11 A3047 RMK A01 T10691114  RH  070%=      5-min Rain = 0
KVP1 071309Z 36005KT M07/M11 A3047 RMK A01 T10691114  RH  070%=      5-min Rain = 0
KVP1 071310Z 35006KT M07/M11 A3047 RMK A01 T10701114  RH  071%=      5-min Rain = 0
KVP1 071311Z 36006KT M07/M11 A3047 RMK A01 T10701113  RH  071%=      5-min Rain = 0
KVP1 071312Z 00005KT M07/M11 A3048 RMK A01 T10701113  RH  071%=      5-min Rain = 0
KVP1 071313Z 00005KT M07/M11 A3048 RMK A01 T10701113  RH  071%=      5-min Rain = 0
KVP1 071314Z 36006KT M07/M11 A3047 RMK A01 T10701112  RH  072%=      5-min Rain = 0
KVP1 071315Z 36005KT M07/M11 A3048 RMK A01 T10701112  RH  072%=      5-min Rain = 0
KVP1 071316Z 00006KT M07/M11 A3047 RMK A01 T10701112  RH  072%=      5-min Rain = 0
KVP1 071317Z 36006KT M07/M11 A3047 RMK A01 T10701112  RH  072%=      5-min Rain = 0
KVP1 071318Z 36006KT M07/M11 A3047 RMK A01 T10701112  RH  072%=      5-min Rain = 0
KVP1 071319Z 36006KT M07/M11 A3047 RMK A01 T10691112  RH  072%=      5-min Rain = 0
KVP1 071320Z 36006KT M07/M11 A3047 RMK A01 T10691112  RH  072%=      5-min Rain = 0
KVP1 071321Z 35006KT M07/M11 A3047 RMK A01 T10681111  RH  071%=      5-min Rain = 0
KVP1 071322Z 35006KT M07/M11 A3047 RMK A01 T10671111  RH  071%=      5-min Rain = 0
KVP1 071323Z 35006KT M07/M11 A3047 RMK A01 T10671111  RH  071%=      5-min Rain = 0
KVP1 071324Z 36006KT M07/M11 A3047 RMK A01 T10671111  RH  071%=      5-min Rain = 0
KVP1 071325Z 35006KT M07/M11 A3047 RMK A01 T10661110  RH  071%=      5-min Rain = 0
KVP1 071326Z 36006KT M07/M11 A3047 RMK A01 T10661111  RH  071%=      5-min Rain = 0
KVP1 071327Z 35006KT M07/M11 A3047 RMK A01 T10661111  RH  071%=      5-min Rain = 0
KVP1 071328Z 36006KT M07/M11 A3047 RMK A01 T10661110  RH  071%=      5-min Rain = 0
KVP1 071329Z 35006KT M07/M11 A3047 RMK A01 T10651110  RH  070%=      5-min Rain = 0
KVP1 071330Z 35006KT M07/M11 A3047 RMK A01 T10651110  RH  070%=      5-min Rain = 0
KVP1 071331Z 36006KT M07/M11 A3047 RMK A01 T10651110  RH  070%=      5-min Rain = 0
KVP1 071332Z 36006KT M07/M11 A3047 RMK A01 T10651110  RH  070%=      5-min Rain = 0
KVP1 071333Z 36006KT M07/M11 A3047 RMK A01 T10651110  RH  070%=      5-min Rain = 0
KVP1 071334Z 35006KT M07/M11 A3047 RMK A01 T10651110  RH  070%=      5-min Rain = 0
KVP1 071335Z 36006KT M07/M11 A3047 RMK A01 T10651110  RH  070%=      5-min Rain = 0
KVP1 071336Z 36005KT M06/M11 A3047 RMK A01 T10641110  RH  070%=      5-min Rain = 0
KVP1 071337Z 36006KT M06/M11 A3047 RMK A01 T10641110  RH  070%=      5-min Rain = 0
KVP1 071338Z 36006KT M07/M11 A3047 RMK A01 T10651110  RH  070%=      5-min Rain = 0
KVP1 071339Z 35006KT M07/M11 A3047 RMK A01 T10651109  RH  071%=      5-min Rain = 0
KVP1 071340Z 36006KT M07/M11 A3047 RMK A01 T10651109  RH  071%=      5-min Rain = 0
KVP1 071341Z 36005KT M07/M11 A3047 RMK A01 T10651109  RH  071%=      5-min Rain = 0
KVP1 071342Z 36005KT M07/M11 A3047 RMK A01 T10651109  RH  071%=      5-min Rain = 0
KVP1 071343Z 35006KT M07/M11 A3047 RMK A01 T10651109  RH  071%=      5-min Rain = 0
KVP1 071344Z 36005KT M06/M11 A3048 RMK A01 T10641108  RH  071%=      5-min Rain = 0
KVP1 071345Z 00005KT M06/M11 A3048 RMK A01 T10641109  RH  071%=      5-min Rain = 0
KVP1 071346Z 00006KT M07/M11 A3048 RMK A01 T10651109  RH  071%=      5-min Rain = 0
KVP1 071347Z 36006KT M06/M11 A3048 RMK A01 T10641108  RH  071%=      5-min Rain = 0
KVP1 071348Z 00006KT M06/M11 A3048 RMK A01 T10641108  RH  071%=      5-min Rain = 0
KVP1 071349Z 00006KT M06/M11 A3048 RMK A01 T10641109  RH  071%=      5-min Rain = 0
KVP1 071350Z 36006KT M06/M11 A3048 RMK A01 T10641109  RH  070%=      5-min Rain = 0
KVP1 071351Z 36006KT M06/M11 A3048 RMK A01 T10631109  RH  070%=      5-min Rain = 0
KVP1 071352Z 36006KT M06/M11 A3047 RMK A01 T10631109  RH  070%=      5-min Rain = 0
KVP1 071353Z 00007KT M06/M11 A3047 RMK A01 T10631109  RH  070%=      5-min Rain = 0
KVP1 071354Z 36006KT M06/M11 A3047 RMK A01 T10621110  RH  069%=      5-min Rain = 0
KVP1 071355Z 00006KT M06/M11 A3047 RMK A01 T10621109  RH  069%=      5-min Rain = 0
KVP1 071356Z 00006KT M06/M11 A3047 RMK A01 T10611109  RH  069%=      5-min Rain = 0
KVP1 071357Z 36007KT M06/M11 A3047 RMK A01 T10621110  RH  068%=      5-min Rain = 0
KVP1 071358Z 36006KT M06/M11 A3047 RMK A01 T10611111  RH  068%=      5-min Rain = 0
KVP1 071359Z 36006KT M06/M11 A3047 RMK A01 T10601110  RH  068%=      5-min Rain = 0
KVP1 071400Z 00006KT M06/M11 A3047 RMK A01 T10601111  RH  067%=      5-min Rain = 0
KVP1 071401Z 36006KT M06/M11 A3047 RMK A01 T10601111  RH  067%=      5-min Rain = 0
KVP1 071402Z 36005KT M06/M11 A3048 RMK A01 T10601111  RH  067%=      5-min Rain = 0
KVP1 071403Z 35006KT M06/M11 A3048 RMK A01 T10601111  RH  067%=      5-min Rain = 0
KVP1 071404Z 36006KT M06/M11 A3048 RMK A01 T10591111  RH  067%=      5-min Rain = 0
KVP1 071405Z 36005KT M06/M11 A3048 RMK A01 T10591111  RH  067%=      5-min Rain = 0
KVP1 071406Z 36006KT M06/M11 A3048 RMK A01 T10591112  RH  067%=      5-min Rain = 0
KVP1 071407Z 35004KT M06/M11 A3048 RMK A01 T10591111  RH  067%=      5-min Rain = 0
KVP1 071408Z 35004KT M06/M11 A3048 RMK A01 T10591111  RH  067%=      5-min Rain = 0
KVP1 071409Z 35004KT M06/M11 A3048 RMK A01 T10591111  RH  067%=      5-min Rain = 0
KVP1 071410Z 35004KT M06/M11 A3048 RMK A01 T10591111  RH  067%=      5-min Rain = 0
KVP1 071411Z 34004KT M06/M11 A3048 RMK A01 T10591110  RH  068%=      5-min Rain = 0
KVP1 071412Z 33005KT M06/M11 A3048 RMK A01 T10601110  RH  068%=      5-min Rain = 0
KVP1 071413Z 33004KT M06/M11 A3048 RMK A01 T10611109  RH  069%=      5-min Rain = 0
KVP1 071414Z 34004KT M06/M11 A3048 RMK A01 T10621109  RH  069%=      5-min Rain = 0
KVP1 071415Z 34004KT M06/M11 A3048 RMK A01 T10621109  RH  069%=      5-min Rain = 0
KVP1 071416Z 33004KT M06/M11 A3048 RMK A01 T10631110  RH  070%=      5-min Rain = 0
KVP1 071417Z 33004KT M06/M11 A3048 RMK A01 T10641110  RH  070%=      5-min Rain = 0
KVP1 071418Z 33004KT M06/M11 A3048 RMK A01 T10641109  RH  070%=      5-min Rain = 0
KVP1 071419Z 33005KT M07/M11 A3048 RMK A01 T10651109  RH  071%=      5-min Rain = 0
KVP1 071420Z 34004KT M07/M11 A3048 RMK A01 T10661110  RH  071%=      5-min Rain = 0
KVP1 071421Z 34004KT M07/M11 A3048 RMK A01 T10671110  RH  071%=      5-min Rain = 0
KVP1 071422Z 34004KT M07/M11 A3048 RMK A01 T10671110  RH  072%=      5-min Rain = 0
KVP1 071423Z 34004KT M07/M11 A3048 RMK A01 T10681110  RH  072%=      5-min Rain = 0
KVP1 071424Z 33004KT M07/M11 A3048 RMK A01 T10681110  RH  072%=      5-min Rain = 0
KVP1 071425Z 33004KT M07/M11 A3048 RMK A01 T10691110  RH  072%=      5-min Rain = 0
KVP1 071426Z 33004KT M07/M11 A3048 RMK A01 T10691110  RH  073%=      5-min Rain = 0
KVP1 071427Z 32004KT M07/M11 A3048 RMK A01 T10701110  RH  073%=      5-min Rain = 0
KVP1 071428Z 33005KT M07/M11 A3048 RMK A01 T10711109  RH  074%=      5-min Rain = 0
KVP1 071429Z 33005KT M07/M11 A3048 RMK A01 T10711109  RH  074%=      5-min Rain = 0
KVP1 071430Z 33005KT M07/M11 A3048 RMK A01 T10721109  RH  075%=      5-min Rain = 0
KVP1 071431Z 34004KT M07/M11 A3048 RMK A01 T10721109  RH  075%=      5-min Rain = 0
KVP1 071432Z 34004KT M07/M11 A3048 RMK A01 T10731109  RH  075%=      5-min Rain = 0
KVP1 071433Z 34004KT M07/M11 A3048 RMK A01 T10731109  RH  076%=      5-min Rain = 0
KVP1 071434Z 35004KT M07/M11 A3048 RMK A01 T10731109  RH  076%=      5-min Rain = 0
KVP1 071435Z 35003KT M07/M11 A3048 RMK A01 T10741109  RH  076%=      5-min Rain = 0
KVP1 071436Z 35004KT M07/M11 A3048 RMK A01 T10731109  RH  076%=      5-min Rain = 0
KVP1 071437Z 34003KT M07/M11 A3048 RMK A01 T10731109  RH  076%=      5-min Rain = 0
KVP1 071438Z 33003KT M07/M11 A3048 RMK A01 T10731109  RH  075%=      5-min Rain = 0
KVP1 071439Z 32003KT M07/M11 A3048 RMK A01 T10731108  RH  076%=      5-min Rain = 0
KVP1 071440Z 32004KT M07/M11 A3048 RMK A01 T10731108  RH  076%=      5-min Rain = 0
KVP1 071441Z 32004KT M07/M11 A3048 RMK A01 T10721107  RH  076%=      5-min Rain = 0
KVP1 071442Z 32004KT M07/M11 A3048 RMK A01 T10731107  RH  077%=      5-min Rain = 0
KVP1 071443Z 33003KT M07/M11 A3048 RMK A01 T10721105  RH  077%=      5-min Rain = 0
KVP1 071444Z 33003KT M07/M10 A3048 RMK A01 T10711104  RH  077%=      5-min Rain = 0
KVP1 071445Z 33003KT M07/M10 A3048 RMK A01 T10701104  RH  077%=      5-min Rain = 0
KVP1 071446Z 34003KT M07/M10 A3048 RMK A01 T10691103  RH  077%=      5-min Rain = 0
KVP1 071447Z 34002KT M07/M10 A3048 RMK A01 T10681103  RH  076%=      5-min Rain = 0
KVP1 071448Z 35003KT M07/M10 A3048 RMK A01 T10671102  RH  076%=      5-min Rain = 0
KVP1 071449Z 34003KT M07/M10 A3048 RMK A01 T10661103  RH  075%=      5-min Rain = 0
KVP1 071450Z 34004KT M07/M10 A3048 RMK A01 T10651103  RH  075%=      5-min Rain = 0
KVP1 071451Z 34004KT M06/M10 A3048 RMK A01 T10641103  RH  074%=      5-min Rain = 0
KVP1 071452Z 34004KT M06/M10 A3048 RMK A01 T10631103  RH  073%=      5-min Rain = 0
KVP1 071453Z 34005KT M06/M10 A3048 RMK A01 T10611104  RH  072%=      5-min Rain = 0
KVP1 071454Z 35004KT M06/M10 A3048 RMK A01 T10601104  RH  071%=      5-min Rain = 0
KVP1 071455Z 35004KT M06/M10 A3048 RMK A01 T10591103  RH  071%=      5-min Rain = 0
KVP1 071456Z 36004KT M06/M10 A3048 RMK A01 T10571103  RH  070%=      5-min Rain = 0
KVP1 071457Z 01005KT M06/M10 A3048 RMK A01 T10551104  RH  069%=      5-min Rain = 0
KVP1 071458Z 36005KT M05/M10 A3048 RMK A01 T10531103  RH  068%=      5-min Rain = 0
KVP1 071459Z 35006KT M05/M10 A3048 RMK A01 T10501103  RH  066%=      5-min Rain = 0
KVP1 071500Z 35008KT M05/M11 A3048 RMK A01 T10481106  RH  064%=      5-min Rain = 0
KVP1 071501Z 35006KT M05/M11 A3048 RMK A01 T10481110  RH  062%=      5-min Rain = 0
KVP1 071502Z 00008KT M05/M11 A3048 RMK A01 T10481111  RH  061%=      5-min Rain = 0
KVP1 071503Z 36008KT M05/M11 A3048 RMK A01 T10471112  RH  060%=      5-min Rain = 0
KVP1 071504Z 35007KT M05/M11 A3048 RMK A01 T10471112  RH  060%=      5-min Rain = 0
KVP1 071505Z 00007KT M05/M11 A3048 RMK A01 T10451111  RH  060%=      5-min Rain = 0
KVP1 071506Z 36008KT M05/M11 A3048 RMK A01 T10451113  RH  059%=      5-min Rain = 0
KVP1 071507Z 00007KT M04/M12 A3048 RMK A01 T10441115  RH  058%=      5-min Rain = 0
KVP1 071508Z 00006KT M04/M11 A3048 RMK A01 T10431114  RH  058%=      5-min Rain = 0
KVP1 071509Z 35010KT M04/M11 A3048 RMK A01 T10411114  RH  057%=      5-min Rain = 0
KVP1 071510Z 36009KT M04/M12 A3048 RMK A01 T10411117  RH  055%=      5-min Rain = 0
KVP1 071511Z 36008KT M04/M12 A3048 RMK A01 T10401117  RH  055%=      5-min Rain = 0
KVP1 071512Z 00007KT M04/M12 A3047 RMK A01 T10391116  RH  055%=      5-min Rain = 0
KVP1 071513Z 00007KT M04/M12 A3047 RMK A01 T10371115  RH  055%=      5-min Rain = 0
KVP1 071514Z 00008KT M04/M12 A3047 RMK A01 T10351115  RH  054%=      5-min Rain = 0
KVP1 071515Z 35010KT M03/M12 A3047 RMK A01 T10341117  RH  053%=      5-min Rain = 0
KVP1 071516Z 01010KT M03/M12 A3048 RMK A01 T10341119  RH  052%=      5-min Rain = 0
KVP1 071517Z 01009KT M03/M12 A3048 RMK A01 T10341120  RH  051%=      5-min Rain = 0
KVP1 071518Z 02008KT M04/M12 A3048 RMK A01 T10351121  RH  051%=      5-min Rain = 0
KVP1 071519Z 36009KT M03/M12 A3047 RMK A01 T10341120  RH  052%=      5-min Rain = 0
KVP1 071520Z 00009KT M03/M12 A3048 RMK A01 T10331119  RH  051%=      5-min Rain = 0
KVP1 071521Z 00010KT M03/M12 A3048 RMK A01 T10331121  RH  051%=      5-min Rain = 0
KVP1 071522Z 36009KT M03/M12 A3048 RMK A01 T10331121  RH  051%=      5-min Rain = 0
KVP1 071523Z 00008KT M03/M12 A3048 RMK A01 T10321121  RH  051%=      5-min Rain = 0
KVP1 071524Z 35010KT M03/M12 A3048 RMK A01 T10321121  RH  050%=      5-min Rain = 0
KVP1 071525Z 01009KT M03/M12 A3048 RMK A01 T10311121  RH  050%=      5-min Rain = 0
KVP1 071526Z 01009KT M03/M12 A3048 RMK A01 T10331123  RH  050%=      5-min Rain = 0
KVP1 071527Z 01009KT M03/M12 A3048 RMK A01 T10331123  RH  050%=      5-min Rain = 0
KVP1 071528Z 35006KT M03/M12 A3048 RMK A01 T10321121  RH  050%=      5-min Rain = 0
KVP1 071529Z 00009KT M03/M12 A3048 RMK A01 T10281116  RH  051%=      5-min Rain = 0
KVP1 071530Z 00007KT M03/M12 A3048 RMK A01 T10271119  RH  049%=      5-min Rain = 0
KVP1 071531Z 35009KT M03/M12 A3048 RMK A01 T10291122  RH  049%=      5-min Rain = 0
KVP1 071532Z 35010KT M03/M12 A3048 RMK A01 T10301121  RH  049%=      5-min Rain = 0
KVP1 071533Z 34009KT M03/M12 A3048 RMK A01 T10301121  RH  049%=      5-min Rain = 0
KVP1 071534Z 35008KT M03/M12 A3048 RMK A01 T10311121  RH  050%=      5-min Rain = 0
KVP1 071535Z 35008KT M03/M12 A3048 RMK A01 T10311121  RH  050%=      5-min Rain = 0
KVP1 071536Z 35009KT M03/M12 A3048 RMK A01 T10311121  RH  050%=      5-min Rain = 0
KVP1 071537Z 35010KT M03/M12 A3048 RMK A01 T10311121  RH  050%=      5-min Rain = 0
KVP1 071538Z 35008KT M03/M12 A3048 RMK A01 T10321122  RH  050%=      5-min Rain = 0
KVP1 071539Z 35008KT M03/M12 A3048 RMK A01 T10331122  RH  050%=      5-min Rain = 0
KVP1 071540Z 35008KT M03/M12 A3048 RMK A01 T10321121  RH  050%=      5-min Rain = 0
KVP1 071541Z 35008KT M03/M12 A3048 RMK A01 T10311120  RH  050%=      5-min Rain = 0
KVP1 071542Z 35009KT M03/M12 A3048 RMK A01 T10301120  RH  050%=      5-min Rain = 0
KVP1 071543Z 35010KT M03/M12 A3048 RMK A01 T10311121  RH  050%=      5-min Rain = 0
KVP1 071544Z 34009KT M03/M12 A3048 RMK A01 T10301121  RH  050%=      5-min Rain = 0
KVP1 071545Z 35009KT M03/M12 A3048 RMK A01 T10291120  RH  050%=      5-min Rain = 0
KVP1 071546Z 35010KT M03/M12 A3048 RMK A01 T10281118  RH  050%=      5-min Rain = 0
KVP1 071547Z 35010KT M03/M12 A3048 RMK A01 T10261117  RH  049%=      5-min Rain = 0
KVP1 071548Z 36010KT M03/M12 A3048 RMK A01 T10271120  RH  049%=      5-min Rain = 0
KVP1 071549Z 36010KT M03/M12 A3048 RMK A01 T10281121  RH  049%=      5-min Rain = 0
KVP1 071550Z 35010KT M03/M12 A3048 RMK A01 T10281120  RH  049%=      5-min Rain = 0
KVP1 071551Z 34011KT M03/M12 A3048 RMK A01 T10281120  RH  049%=      5-min Rain = 0
KVP1 071552Z 34012KT M03/M12 A3048 RMK A01 T10271119  RH  049%=      5-min Rain = 0
KVP1 071553Z 35013KT M03/M12 A3048 RMK A01 T10271120  RH  049%=      5-min Rain = 0
KVP1 071554Z 00011KT M03/M12 A3048 RMK A01 T10281121  RH  049%=      5-min Rain = 0
KVP1 071555Z 00009KT M03/M12 A3048 RMK A01 T10281121  RH  049%=      5-min Rain = 0
KVP1 071556Z 35011KT M03/M12 A3048 RMK A01 T10271120  RH  049%=      5-min Rain = 0
KVP1 071557Z 36011KT M03/M12 A3048 RMK A01 T10291122  RH  049%=      5-min Rain = 0
KVP1 071558Z 36011KT M03/M12 A3048 RMK A01 T10301122  RH  049%=      5-min Rain = 0
KVP1 071559Z 36010KT M03/M12 A3048 RMK A01 T10291120  RH  049%=      5-min Rain = 0
KVP1 071600Z 00012KT M03/M12 A3048 RMK A01 T10281120  RH  049%=      5-min Rain = 0
KVP1 071601Z 00010KT M03/M12 A3048 RMK A01 T10301122  RH  049%=      5-min Rain = 0
KVP1 071602Z 01008KT M03/M12 A3048 RMK A01 T10311122  RH  050%=      5-min Rain = 0
KVP1 071603Z 00011KT M03/M12 A3048 RMK A01 T10311120  RH  050%=      5-min Rain = 0
KVP1 071604Z 01011KT M03/M12 A3048 RMK A01 T10311121  RH  050%=      5-min Rain = 0
KVP1 071605Z 01008KT M03/M12 A3048 RMK A01 T10331122  RH  050%=      5-min Rain = 0
KVP1 071606Z 00008KT M03/M12 A3048 RMK A01 T10321120  RH  051%=      5-min Rain = 0
KVP1 071607Z 36010KT M03/M12 A3048 RMK A01 T10291117  RH  051%=      5-min Rain = 0
KVP1 071608Z 00009KT M03/M12 A3048 RMK A01 T10281118  RH  050%=      5-min Rain = 0
KVP1 071609Z 00009KT M03/M12 A3048 RMK A01 T10301120  RH  050%=      5-min Rain = 0
KVP1 071610Z 01010KT M03/M12 A3048 RMK A01 T10311121  RH  050%=      5-min Rain = 0
KVP1 071611Z 35009KT M03/M12 A3048 RMK A01 T10321120  RH  050%=      5-min Rain = 0
KVP1 071612Z 36010KT M03/M12 A3048 RMK A01 T10301118  RH  051%=      5-min Rain = 0
KVP1 071613Z 35008KT M03/M12 A3048 RMK A01 T10301119  RH  050%=      5-min Rain = 0
KVP1 071614Z 35010KT M03/M12 A3048 RMK A01 T10301119  RH  050%=      5-min Rain = 0
KVP1 071615Z 36010KT M03/M12 A3048 RMK A01 T10301119  RH  050%=      5-min Rain = 0
KVP1 071616Z 35010KT M03/M12 A3048 RMK A01 T10301119  RH  050%=      5-min Rain = 0
KVP1 071617Z 35009KT M03/M12 A3048 RMK A01 T10301118  RH  051%=      5-min Rain = 0
KVP1 071618Z 35008KT M03/M12 A3048 RMK A01 T10291116  RH  051%=      5-min Rain = 0
KVP1 071619Z 35007KT M03/M12 A3048 RMK A01 T10261115  RH  050%=      5-min Rain = 0
KVP1 071620Z 34010KT M03/M12 A3048 RMK A01 T10251116  RH  050%=      5-min Rain = 0
KVP1 071621Z 00008KT M03/M12 A3048 RMK A01 T10251116  RH  050%=      5-min Rain = 0
KVP1 071622Z 00007KT M03/M12 A3048 RMK A01 T10261118  RH  049%=      5-min Rain = 0
KVP1 071623Z 34007KT M03/M12 A3048 RMK A01 T10251115  RH  050%=      5-min Rain = 0
KVP1 071624Z 34010KT M02/M11 A3048 RMK A01 T10221113  RH  050%=      5-min Rain = 0
KVP1 071625Z 35010KT M02/M12 A3048 RMK A01 T10231116  RH  049%=      5-min Rain = 0
KVP1 071626Z 00008KT M02/M12 A3048 RMK A01 T10241116  RH  049%=      5-min Rain = 0
KVP1 071627Z 35008G13KT M02/M12 A3048 RMK A01 T10241116  RH  049%=      5-min Rain = 0
KVP1 071628Z 35009KT M02/M12 A3048 RMK A01 T10241116  RH  050%=      5-min Rain = 0
KVP1 071629Z 35008KT M02/M12 A3048 RMK A01 T10241115  RH  050%=      5-min Rain = 0
KVP1 071630Z 35011KT M02/M11 A3048 RMK A01 T10231114  RH  050%=      5-min Rain = 0
KVP1 071631Z 35011KT M02/M11 A3048 RMK A01 T10221113  RH  050%=      5-min Rain = 0
KVP1 071632Z 36010KT M02/M11 A3048 RMK A01 T10231114  RH  050%=      5-min Rain = 0
KVP1 071633Z 36009KT M02/M11 A3048 RMK A01 T10241114  RH  050%=      5-min Rain = 0
KVP1 071634Z 36008KT M02/M11 A3048 RMK A01 T10231111  RH  051%=      5-min Rain = 0
KVP1 071635Z 35008KT M02/M11 A3048 RMK A01 T10211109  RH  051%=      5-min Rain = 0
KVP1 071636Z 35010KT M02/M11 A3048 RMK A01 T10201109  RH  051%=      5-min Rain = 0
KVP1 071637Z 36008KT M02/M11 A3048 RMK A01 T10201109  RH  051%=      5-min Rain = 0
KVP1 071638Z 00009KT M02/M11 A3048 RMK A01 T10201108  RH  051%=      5-min Rain = 0
KVP1 071639Z 36010KT M02/M11 A3048 RMK A01 T10191108  RH  050%=      5-min Rain = 0
KVP1 071640Z 35009KT M02/M11 A3048 RMK A01 T10191109  RH  050%=      5-min Rain = 0
KVP1 071641Z 36009KT M02/M11 A3048 RMK A01 T10191108  RH  051%=      5-min Rain = 0
KVP1 071642Z 36009KT M02/M11 A3048 RMK A01 T10181108  RH  050%=      5-min Rain = 0
KVP1 071643Z 35009KT M02/M11 A3048 RMK A01 T10161106  RH  050%=      5-min Rain = 0
KVP1 071644Z 33010KT M02/M11 A3048 RMK A01 T10151106  RH  050%=      5-min Rain = 0
KVP1 071645Z 35010KT M02/M11 A3048 RMK A01 T10151107  RH  049%=      5-min Rain = 0
KVP1 071646Z 35008KT M02/M11 A3048 RMK A01 T10171109  RH  049%=      5-min Rain = 0
KVP1 071647Z 36009KT M02/M11 A3047 RMK A01 T10171107  RH  050%=      5-min Rain = 0
KVP1 071648Z 00009KT M02/M11 A3047 RMK A01 T10151106  RH  050%=      5-min Rain = 0
KVP1 071649Z 01010KT M01/M11 A3047 RMK A01 T10141106  RH  049%=      5-min Rain = 0
KVP1 071650Z 00012G17KT M02/M11 A3047 RMK A01 T10161109  RH  049%=      5-min Rain = 0
KVP1 071651Z 00012KT M02/M11 A3047 RMK A01 T10171109  RH  050%=      5-min Rain = 0
KVP1 071652Z 36009KT M02/M11 A3047 RMK A01 T10161108  RH  050%=      5-min Rain = 0
KVP1 071653Z 33008KT M01/M11 A3047 RMK A01 T10141106  RH  050%=      5-min Rain = 0
KVP1 071654Z 35007KT M01/M10 A3047 RMK A01 T10101103  RH  049%=      5-min Rain = 0
KVP1 071655Z 34010KT M01/M10 A3047 RMK A01 T10081103  RH  048%=      5-min Rain = 0
KVP1 071656Z 00010KT M01/M11 A3047 RMK A01 T10081105  RH  048%=      5-min Rain = 0
KVP1 071657Z 35008KT M01/M11 A3047 RMK A01 T10111108  RH  048%=      5-min Rain = 0
KVP1 071658Z 00008KT M01/M11 A3047 RMK A01 T10121108  RH  048%=      5-min Rain = 0
KVP1 071659Z 36011KT M01/M11 A3047 RMK A01 T10111107  RH  048%=      5-min Rain = 0
KVP1 071700Z 00011KT M01/M11 A3047 RMK A01 T10111108  RH  048%=      5-min Rain = 0
KVP1 071701Z 35010KT M01/M11 A3047 RMK A01 T10131109  RH  048%=      5-min Rain = 0
KVP1 071702Z 34011KT M01/M11 A3047 RMK A01 T10131107  RH  049%=      5-min Rain = 0
KVP1 071703Z 34008KT M01/M11 A3047 RMK A01 T10121107  RH  049%=      5-min Rain = 0
KVP1 071704Z 35008KT M01/M11 A3047 RMK A01 T10101105  RH  049%=      5-min Rain = 0
KVP1 071705Z 34008KT M01/M11 A3047 RMK A01 T10081106  RH  048%=      5-min Rain = 0
KVP1 071706Z 34013KT M01/M11 A3047 RMK A01 T10091106  RH  048%=      5-min Rain = 0
KVP1 071707Z 01010KT M01/M11 A3047 RMK A01 T10081106  RH  047%=      5-min Rain = 0
KVP1 071708Z 00008KT M01/M11 A3047 RMK A01 T10091108  RH  047%=      5-min Rain = 0
KVP1 071709Z 00010KT M01/M11 A3047 RMK A01 T10091107  RH  047%=      5-min Rain = 0
KVP1 071710Z 01009KT M01/M11 A3047 RMK A01 T10081106  RH  047%=      5-min Rain = 0
KVP1 071711Z 01009KT M01/M10 A3047 RMK A01 T10051104  RH  047%=      5-min Rain = 0
KVP1 071712Z 35008KT 00/10 A3047 RMK A01 T00-00-102  RH  046%=      5-min Rain = 0
KVP1 071713Z 35010KT 00/10 A3047 RMK A01 T00000-104  RH  045%=      5-min Rain = 0
KVP1 071714Z 00008KT M00/M11 A3047 RMK A01 T10021106  RH  045%=      5-min Rain = 0
KVP1 071715Z 35010KT M00/M11 A3047 RMK A01 T10021106  RH  046%=      5-min Rain = 0
KVP1 071716Z 36013KT M00/M11 A3047 RMK A01 T10041107  RH  045%=      5-min Rain = 0
KVP1 071717Z 00010KT M01/M11 A3047 RMK A01 T10061109  RH  046%=      5-min Rain = 0
KVP1 071718Z 35012KT M01/M11 A3047 RMK A01 T10061108  RH  046%=      5-min Rain = 0
KVP1 071719Z 36010KT M01/M11 A3047 RMK A01 T10061108  RH  046%=      5-min Rain = 0
KVP1 071720Z 35011KT M01/M11 A3047 RMK A01 T10051107  RH  046%=      5-min Rain = 0
KVP1 071721Z 01010G15KT M00/M11 A3047 RMK A01 T10041107  RH  046%=      5-min Rain = 0
KVP1 071722Z 00011KT M01/M11 A3046 RMK A01 T10051109  RH  045%=      5-min Rain = 0
KVP1 071723Z 00013KT M01/M11 A3046 RMK A01 T10051109  RH  046%=      5-min Rain = 0
KVP1 071724Z 00011KT M01/M11 A3046 RMK A01 T10061109  RH  046%=      5-min Rain = 0
KVP1 071725Z 35012KT M01/M11 A3046 RMK A01 T10051108  RH  046%=      5-min Rain = 0
KVP1 071726Z 35015KT M01/M11 A3046 RMK A01 T10051108  RH  046%=      5-min Rain = 0
KVP1 071727Z 35012KT M01/M11 A3046 RMK A01 T10061109  RH  046%=      5-min Rain = 0
KVP1 071728Z 34011KT M01/M11 A3046 RMK A01 T10051107  RH  046%=      5-min Rain = 0
KVP1 071729Z 36010KT M00/M11 A3046 RMK A01 T10021105  RH  046%=      5-min Rain = 0
KVP1 071730Z 35011KT M00/M11 A3046 RMK A01 T10021106  RH  045%=      5-min Rain = 0
KVP1 071731Z 35013KT M00/M11 A3046 RMK A01 T10011107  RH  045%=      5-min Rain = 0
KVP1 071732Z 35012KT M00/M11 A3046 RMK A01 T10021108  RH  045%=      5-min Rain = 0
KVP1 071733Z 35013KT M00/M11 A3046 RMK A01 T10011108  RH  045%=      5-min Rain = 0
KVP1 071734Z 36013KT M00/M11 A3046 RMK A01 T10031109  RH  044%=      5-min Rain = 0
KVP1 071735Z 00013KT M00/M11 A3046 RMK A01 T10041110  RH  045%=      5-min Rain = 0
KVP1 071736Z 36012KT M01/M11 A3046 RMK A01 T10051109  RH  045%=      5-min Rain = 0
KVP1 071737Z 36012KT M01/M11 A3046 RMK A01 T10061111  RH  045%=      5-min Rain = 0
KVP1 071738Z 35011KT M01/M11 A3046 RMK A01 T10081111  RH  046%=      5-min Rain = 0
KVP1 071739Z 35011KT M01/M11 A3046 RMK A01 T10061107  RH  046%=      5-min Rain = 0
KVP1 071740Z 36009KT M00/M11 A3045 RMK A01 T10041107  RH  045%=      5-min Rain = 0
KVP1 071741Z 35010KT M01/M11 A3045 RMK A01 T10051109  RH  045%=      5-min Rain = 0
KVP1 071742Z 35012KT M00/M11 A3045 RMK A01 T10041108  RH  045%=      5-min Rain = 0
KVP1 071743Z 36012KT M00/M11 A3045 RMK A01 T10041109  RH  045%=      5-min Rain = 0
KVP1 071744Z 01012KT M00/M11 A3045 RMK A01 T10041110  RH  045%=      5-min Rain = 0
KVP1 071745Z 02013KT M00/M11 A3045 RMK A01 T10041109  RH  045%=      5-min Rain = 0
KVP1 071746Z 02014KT M00/M11 A3045 RMK A01 T10041110  RH  045%=      5-min Rain = 0
KVP1 071747Z 00012G17KT M00/M11 A3045 RMK A01 T10041111  RH  045%=      5-min Rain = 0
KVP1 071748Z 01011KT M00/M11 A3045 RMK A01 T10041110  RH  045%=      5-min Rain = 0
KVP1 071749Z 01013KT M00/M11 A3045 RMK A01 T10041109  RH  045%=      5-min Rain = 0
KVP1 071750Z 01013KT M00/M11 A3045 RMK A01 T10031109  RH  045%=      5-min Rain = 0
KVP1 071751Z 35013KT M00/M11 A3045 RMK A01 T10021109  RH  044%=      5-min Rain = 0
KVP1 071752Z 01011G17KT M00/M11 A3045 RMK A01 T10031109  RH  044%=      5-min Rain = 0
KVP1 071753Z 02011G16KT 00/M11 A3045 RMK A01 T00011106  RH  044%=      5-min Rain = 0
KVP1 071754Z 01009G14KT 00/M11 A3045 RMK A01 T00011108  RH  044%=      5-min Rain = 0
KVP1 071755Z 00011KT 00/11 A3045 RMK A01 T00000-110  RH  043%=      5-min Rain = 0
KVP1 071756Z 00011KT M00/M11 A3045 RMK A01 T10011110  RH  044%=      5-min Rain = 0
KVP1 071757Z 01009KT 00/M11 A3045 RMK A01 T00011107  RH  044%=      5-min Rain = 0
KVP1 071758Z 01013KT 00/M11 A3044 RMK A01 T00031107  RH  043%=      5-min Rain = 0
KVP1 071759Z 01013KT 00/M11 A3044 RMK A01 T00041107  RH  043%=      5-min Rain = 0
KVP1 071800Z 01013KT 00/M11 A3044 RMK A01 T00031109  RH  043%=      5-min Rain = 0
KVP1 071801Z 36011G16KT 00/M11 A3044 RMK A01 T00031109  RH  043%=      5-min Rain = 0
KVP1 071802Z 36008KT 00/M11 A3044 RMK A01 T00041107  RH  043%=      5-min Rain = 0
KVP1 071803Z 35010KT 01/M10 A3044 RMK A01 T00091104  RH  043%=      5-min Rain = 0
KVP1 071804Z 02013G18KT 01/M10 A3044 RMK A01 T00111104  RH  042%=      5-min Rain = 0
KVP1 071805Z 36013KT 01/M11 A3044 RMK A01 T00091109  RH  041%=      5-min Rain = 0
KVP1 071806Z 35012KT 01/M11 A3044 RMK A01 T00071109  RH  042%=      5-min Rain = 0
KVP1 071807Z 35009KT 01/M11 A3044 RMK A01 T00061110  RH  042%=      5-min Rain = 0
KVP1 071808Z 35012KT 01/M11 A3044 RMK A01 T00061107  RH  042%=      5-min Rain = 0
KVP1 071809Z 02011G16KT 01/M11 A3044 RMK A01 T00071108  RH  042%=      5-min Rain = 0
KVP1 071810Z 02012KT 01/M11 A3044 RMK A01 T00091106  RH  042%=      5-min Rain = 0
KVP1 071811Z 02010KT 01/M11 A3043 RMK A01 T00091108  RH  041%=      5-min Rain = 0
KVP1 071812Z 01013G22KT 01/M11 A3043 RMK A01 T00091107  RH  042%=      5-min Rain = 0
KVP1 071813Z 01011KT 01/M11 A3043 RMK A01 T00111106  RH  041%=      5-min Rain = 0
KVP1 071814Z 01014KT 01/M11 A3043 RMK A01 T00081110  RH  041%=      5-min Rain = 0
KVP1 071815Z 01013KT 01/M11 A3043 RMK A01 T00071109  RH  042%=      5-min Rain = 0
KVP1 071816Z 01011KT 01/M11 A3043 RMK A01 T00071108  RH  042%=      5-min Rain = 0
KVP1 071817Z 02012G17KT 01/M11 A3043 RMK A01 T00091107  RH  042%=      5-min Rain = 0
KVP1 071818Z 00011KT 01/M11 A3043 RMK A01 T00101107  RH  041%=      5-min Rain = 0
KVP1 071819Z 01010G15KT 01/M11 A3043 RMK A01 T00111107  RH  041%=      5-min Rain = 0
KVP1 071820Z 01011KT 01/M11 A3043 RMK A01 T00111107  RH  041%=      5-min Rain = 0
KVP1 071821Z 35010G17KT 01/M11 A3043 RMK A01 T00121106  RH  041%=      5-min Rain = 0
KVP1 071822Z 35014KT 02/M10 A3043 RMK A01 T00161103  RH  041%=      5-min Rain = 0
KVP1 071823Z 36010KT 01/M11 A3043 RMK A01 T00141108  RH  040%=      5-min Rain = 0
KVP1 071824Z 00008KT 01/M11 A3043 RMK A01 T00121108  RH  040%=      5-min Rain = 0
KVP1 071825Z 34008KT 01/M11 A3042 RMK A01 T00121106  RH  041%=      5-min Rain = 0
KVP1 071826Z 34012KT 01/M11 A3042 RMK A01 T00141105  RH  041%=      5-min Rain = 0
KVP1 071827Z 34014KT 02/M10 A3042 RMK A01 T00171103  RH  041%=      5-min Rain = 0
KVP1 071828Z 35012KT 02/M11 A3042 RMK A01 T00181105  RH  040%=      5-min Rain = 0
KVP1 071829Z 36013KT 02/M11 A3042 RMK A01 T00181106  RH  040%=      5-min Rain = 0
KVP1 071830Z 36011KT 02/M11 A3042 RMK A01 T00151108  RH  039%=      5-min Rain = 0
KVP1 071831Z 36010KT 01/M11 A3042 RMK A01 T00131108  RH  040%=      5-min Rain = 0
KVP1 071832Z 35011KT 01/M11 A3042 RMK A01 T00131106  RH  041%=      5-min Rain = 0
KVP1 071833Z 34012KT 02/M10 A3042 RMK A01 T00171102  RH  041%=      5-min Rain = 0
KVP1 071834Z 36016KT 02/M10 A3042 RMK A01 T00221103  RH  039%=      5-min Rain = 0
KVP1 071835Z 36011KT 02/M11 A3042 RMK A01 T00171110  RH  039%=      5-min Rain = 0
KVP1 071836Z 01011KT 01/M11 A3042 RMK A01 T00131110  RH  040%=      5-min Rain = 0
KVP1 071837Z 02010KT 01/M11 A3042 RMK A01 T00141107  RH  040%=      5-min Rain = 0
KVP1 071838Z 36011G16KT 02/M11 A3042 RMK A01 T00161105  RH  040%=      5-min Rain = 0
KVP1 071839Z 36015KT 02/M11 A3042 RMK A01 T00181106  RH  039%=      5-min Rain = 0
KVP1 071840Z 36015KT 02/M11 A3042 RMK A01 T00151109  RH  039%=      5-min Rain = 0
KVP1 071841Z 36012KT 02/M11 A3041 RMK A01 T00161108  RH  039%=      5-min Rain = 0
KVP1 071842Z 35013KT 02/M11 A3041 RMK A01 T00151108  RH  040%=      5-min Rain = 0
KVP1 071843Z 35015KT 02/M11 A3041 RMK A01 T00171107  RH  040%=      5-min Rain = 0
KVP1 071844Z 35014KT 02/M11 A3041 RMK A01 T00151108  RH  040%=      5-min Rain = 0
KVP1 071845Z 35013KT 02/M11 A3041 RMK A01 T00161107  RH  040%=      5-min Rain = 0
KVP1 071846Z 35014KT 02/M11 A3041 RMK A01 T00171106  RH  040%=      5-min Rain = 0
KVP1 071847Z 36013KT 02/M11 A3041 RMK A01 T00161107  RH  040%=      5-min Rain = 0
KVP1 071848Z 01013KT 02/M11 A3041 RMK A01 T00161106  RH  040%=      5-min Rain = 0
KVP1 071849Z 00012KT 02/M11 A3041 RMK A01 T00151108  RH  040%=      5-min Rain = 0
KVP1 071850Z 02010KT 01/M11 A304 RMK A01 T00141107  RH  040%=      5-min Rain = 0
KVP1 071851Z 02012KT 02/M11 A304 RMK A01 T00151107  RH  040%=      5-min Rain = 0
KVP1 071852Z 34014KT 02/M11 A304 RMK A01 T00181105  RH  040%=      5-min Rain = 0
KVP1 071853Z 34018KT 02/M11 A304 RMK A01 T00211105  RH  039%=      5-min Rain = 0
KVP1 071854Z 35015KT 02/M11 A304 RMK A01 T00211107  RH  038%=      5-min Rain = 0
KVP1 071855Z 34016KT 02/M11 A304 RMK A01 T00191108  RH  038%=      5-min Rain = 0
KVP1 071856Z 34016KT 02/M11 A304 RMK A01 T00211106  RH  038%=      5-min Rain = 0
KVP1 071857Z 36014KT 02/M11 A304 RMK A01 T00221107  RH  038%=      5-min Rain = 0
KVP1 071858Z 36015KT 02/M11 A304 RMK A01 T00201108  RH  038%=      5-min Rain = 0
KVP1 071859Z 00015KT 02/M11 A304 RMK A01 T00181109  RH  038%=      5-min Rain = 0
KVP1 071900Z 00013KT 02/M11 A304 RMK A01 T00181109  RH  038%=      5-min Rain = 0
KVP1 071901Z 36011KT 02/M11 A304 RMK A01 T00191108  RH  038%=      5-min Rain = 0
KVP1 071902Z 01014KT 02/M11 A304 RMK A01 T00201107  RH  038%=      5-min Rain = 0
KVP1 071903Z 01015KT 02/M11 A304 RMK A01 T00201109  RH  038%=      5-min Rain = 0
KVP1 071904Z 02014KT 02/M11 A304 RMK A01 T00211108  RH  038%=      5-min Rain = 0
KVP1 071905Z 01014KT 02/M11 A304 RMK A01 T00221107  RH  038%=      5-min Rain = 0
KVP1 071906Z 00012G18KT 02/M11 A3039 RMK A01 T00211109  RH  038%=      5-min Rain = 0
KVP1 071907Z 01013G18KT 02/M11 A3039 RMK A01 T00201108  RH  038%=      5-min Rain = 0
KVP1 071908Z 01014KT 02/M11 A3039 RMK A01 T00201107  RH  039%=      5-min Rain = 0
KVP1 071909Z 00011G16KT 02/M11 A3039 RMK A01 T00211106  RH  038%=      5-min Rain = 0
KVP1 071910Z 01011KT 02/M11 A3039 RMK A01 T00211107  RH  038%=      5-min Rain = 0
KVP1 071911Z 00014KT 02/M11 A3039 RMK A01 T00221105  RH  038%=      5-min Rain = 0
KVP1 071912Z 35010KT 02/M11 A3039 RMK A01 T00231105  RH  038%=      5-min Rain = 0
KVP1 071913Z 35010KT 02/M11 A3039 RMK A01 T00231106  RH  038%=      5-min Rain = 0
KVP1 071914Z 35009KT 02/M11 A3039 RMK A01 T00231107  RH  038%=      5-min Rain = 0
KVP1 071915Z 02013KT 02/M11 A3039 RMK A01 T00221106  RH  038%=      5-min Rain = 0
KVP1 071916Z 01012KT 02/M11 A3039 RMK A01 T00231107  RH  038%=      5-min Rain = 0
KVP1 071917Z 02012KT 02/M11 A3039 RMK A01 T00231107  RH  038%=      5-min Rain = 0
KVP1 071918Z 01010KT 02/M11 A3039 RMK A01 T00231107  RH  038%=      5-min Rain = 0
KVP1 071919Z 36009KT 03/M11 A3039 RMK A01 T00251106  RH  038%=      5-min Rain = 0
KVP1 071920Z 36013KT 03/M11 A3039 RMK A01 T00261106  RH  037%=      5-min Rain = 0
KVP1 071921Z 01015G20KT 03/M11 A3039 RMK A01 T00261107  RH  037%=      5-min Rain = 0
KVP1 071922Z 01015KT 03/M11 A3039 RMK A01 T00261108  RH  037%=      5-min Rain = 0
KVP1 071923Z 36013KT 02/M11 A3039 RMK A01 T00231109  RH  037%=      5-min Rain = 0
KVP1 071924Z 01010G15KT 02/M11 A3038 RMK A01 T00241107  RH  037%=      5-min Rain = 0
KVP1 071925Z 01012KT 03/M11 A3038 RMK A01 T00251107  RH  037%=      5-min Rain = 0
KVP1 071926Z 00014KT 03/M11 A3038 RMK A01 T00251108  RH  037%=      5-min Rain = 0
KVP1 071927Z 36010KT 03/M11 A3038 RMK A01 T00251108  RH  037%=      5-min Rain = 0
KVP1 071928Z 00010KT 02/M11 A3038 RMK A01 T00241107  RH  037%=      5-min Rain = 0
KVP1 071929Z 36016KT 03/M11 A3038 RMK A01 T00261106  RH  037%=      5-min Rain = 0
KVP1 071930Z 00014KT 03/M11 A3038 RMK A01 T00251109  RH  036%=      5-min Rain = 0
KVP1 071931Z 00013KT 02/M11 A3038 RMK A01 T00241109  RH  037%=      5-min Rain = 0
KVP1 071932Z 35012KT 02/M11 A3038 RMK A01 T00231108  RH  037%=      5-min Rain = 0
KVP1 071933Z 35014KT 02/M11 A3038 RMK A01 T00241107  RH  037%=      5-min Rain = 0
KVP1 071934Z 36014KT 03/M11 A3038 RMK A01 T00261106  RH  037%=      5-min Rain = 0
KVP1 071935Z 36012KT 03/M11 A3038 RMK A01 T00251108  RH  037%=      5-min Rain = 0
KVP1 071936Z 36014KT 03/M11 A3038 RMK A01 T00251106  RH  037%=      5-min Rain = 0
KVP1 071937Z 36012KT 03/M11 A3038 RMK A01 T00251107  RH  037%=      5-min Rain = 0
KVP1 071938Z 35011KT 03/M11 A3038 RMK A01 T00251107  RH  037%=      5-min Rain = 0
KVP1 071939Z 34013KT 03/M11 A3038 RMK A01 T00251107  RH  037%=      5-min Rain = 0
KVP1 071940Z 33011KT 03/M11 A3038 RMK A01 T00251107  RH  037%=      5-min Rain = 0
KVP1 071941Z 35012KT 03/M11 A3038 RMK A01 T00261106  RH  037%=      5-min Rain = 0
KVP1 071942Z 35016KT 03/M11 A3038 RMK A01 T00261107  RH  037%=      5-min Rain = 0
KVP1 071943Z 36012KT 03/M11 A3038 RMK A01 T00261109  RH  036%=      5-min Rain = 0
KVP1 071944Z 35014KT 03/M11 A3037 RMK A01 T00251109  RH  037%=      5-min Rain = 0
KVP1 071945Z 34012KT 03/M11 A3037 RMK A01 T00251108  RH  037%=      5-min Rain = 0
KVP1 071946Z 00011KT 03/M11 A3037 RMK A01 T00251107  RH  037%=      5-min Rain = 0
KVP1 071947Z 01010G15KT 03/M11 A3037 RMK A01 T00271106  RH  037%=      5-min Rain = 0
KVP1 071948Z 01012G18KT 03/M11 A3037 RMK A01 T00281107  RH  036%=      5-min Rain = 0
KVP1 071949Z 00013KT 03/M11 A3037 RMK A01 T00291107  RH  036%=      5-min Rain = 0
KVP1 071950Z 01013KT 03/M11 A3037 RMK A01 T00291109  RH  036%=      5-min Rain = 0
KVP1 071951Z 00014G19KT 03/M11 A3037 RMK A01 T00281110  RH  035%=      5-min Rain = 0
KVP1 071952Z 35013KT 03/M11 A3037 RMK A01 T00271110  RH  036%=      5-min Rain = 0
KVP1 071953Z 00010KT 03/M11 A3037 RMK A01 T00261110  RH  036%=      5-min Rain = 0
KVP1 071954Z 02013KT 03/M11 A3037 RMK A01 T00261109  RH  036%=      5-min Rain = 0
KVP1 071955Z 36015KT 03/M11 A3037 RMK A01 T00271110  RH  036%=      5-min Rain = 0
KVP1 071956Z 35014KT 03/M11 A3037 RMK A01 T00261110  RH  036%=      5-min Rain = 0
KVP1 071957Z 34012KT 03/M11 A3037 RMK A01 T00261108  RH  036%=      5-min Rain = 0
KVP1 071958Z 02012G18KT 03/M11 A3037 RMK A01 T00271107  RH  037%=      5-min Rain = 0
KVP1 071959Z 02012KT 03/M11 A3037 RMK A01 T00281107  RH  036%=      5-min Rain = 0
KVP1 072000Z 02014KT 03/M11 A3037 RMK A01 T00281109  RH  036%=      5-min Rain = 0
KVP1 072001Z 35012KT 03/M11 A3037 RMK A01 T00311106  RH  036%=      5-min Rain = 0
KVP1 072002Z 34009KT 03/M11 A3037 RMK A01 T00321107  RH  035%=      5-min Rain = 0
KVP1 072003Z 35013KT 03/M11 A3036 RMK A01 T00321108  RH  035%=      5-min Rain = 0
KVP1 072004Z 36010KT 03/M11 A3036 RMK A01 T00311109  RH  035%=      5-min Rain = 0
KVP1 072005Z 35010KT 03/M11 A3036 RMK A01 T00291109  RH  035%=      5-min Rain = 0
KVP1 072006Z 34013KT 03/M11 A3036 RMK A01 T00311105  RH  036%=      5-min Rain = 0
KVP1 072007Z 35012KT 03/M10 A3036 RMK A01 T00341104  RH  036%=      5-min Rain = 0
KVP1 072008Z 35013G18KT 03/M11 A3036 RMK A01 T00331108  RH  035%=      5-min Rain = 0
KVP1 072009Z 36011G18KT 03/M11 A3036 RMK A01 T00321107  RH  035%=      5-min Rain = 0
KVP1 072010Z 34011KT 03/M11 A3036 RMK A01 T00341105  RH  035%=      5-min Rain = 0
KVP1 072011Z 35011KT 04/M11 A3036 RMK A01 T00351106  RH  035%=      5-min Rain = 0
KVP1 072012Z 34008KT 03/M11 A3036 RMK A01 T00341107  RH  035%=      5-min Rain = 0
KVP1 072013Z 33010KT 03/M11 A3036 RMK A01 T00341106  RH  035%=      5-min Rain = 0
KVP1 072014Z 35008KT 03/M11 A3036 RMK A01 T00321106  RH  035%=      5-min Rain = 0
KVP1 072015Z 02012KT 03/M11 A3036 RMK A01 T00331105  RH  036%=      5-min Rain = 0
KVP1 072016Z 00010KT 03/M11 A3036 RMK A01 T00321106  RH  035%=      5-min Rain = 0
KVP1 072017Z 00010KT 03/M11 A3036 RMK A01 T00321106  RH  036%=      5-min Rain = 0
KVP1 072018Z 35011KT 03/M11 A3036 RMK A01 T00331107  RH  035%=      5-min Rain = 0
KVP1 072019Z 36009KT 03/M11 A3035 RMK A01 T00321109  RH  035%=      5-min Rain = 0
KVP1 072020Z 36010KT 03/M11 A3035 RMK A01 T00331108  RH  035%=      5-min Rain = 0
KVP1 072021Z 34012KT 03/M11 A3035 RMK A01 T00331110  RH  034%=      5-min Rain = 0
KVP1 072022Z 36011KT 03/M11 A3035 RMK A01 T00311111  RH  034%=      5-min Rain = 0
KVP1 072023Z 00011KT 03/M11 A3035 RMK A01 T00321109  RH  035%=      5-min Rain = 0
KVP1 072024Z 35012KT 03/M11 A3035 RMK A01 T00321111  RH  034%=      5-min Rain = 0
KVP1 072025Z 36013KT 03/M11 A3035 RMK A01 T00301111  RH  034%=      5-min Rain = 0
KVP1 072026Z 35011KT 03/M11 A3035 RMK A01 T00301110  RH  035%=      5-min Rain = 0
KVP1 072027Z 35011KT 03/M11 A3035 RMK A01 T00331107  RH  035%=      5-min Rain = 0
KVP1 072028Z 01010KT 03/M11 A3035 RMK A01 T00331110  RH  034%=      5-min Rain = 0
KVP1 072029Z 35009KT 03/M11 A3035 RMK A01 T00301113  RH  034%=      5-min Rain = 0
KVP1 072030Z 36010KT 03/M11 A3035 RMK A01 T00291112  RH  035%=      5-min Rain = 0
KVP1 072031Z 36010KT 03/M11 A3035 RMK A01 T00301110  RH  035%=      5-min Rain = 0
KVP1 072032Z 35008KT 03/M11 A3035 RMK A01 T00301110  RH  035%=      5-min Rain = 0
KVP1 072033Z 34008KT 03/M11 A3035 RMK A01 T00311109  RH  035%=      5-min Rain = 0
KVP1 072034Z 34007KT 03/M11 A3035 RMK A01 T00311109  RH  035%=      5-min Rain = 0
KVP1 072035Z 01010G15KT 03/M11 A3035 RMK A01 T00321109  RH  035%=      5-min Rain = 0
KVP1 072036Z 01011KT 03/M11 A3035 RMK A01 T00321108  RH  035%=      5-min Rain = 0
KVP1 072037Z 02011KT 03/M11 A3035 RMK A01 T00321109  RH  035%=      5-min Rain = 0
KVP1 072038Z 01009KT 03/M11 A3035 RMK A01 T00311111  RH  034%=      5-min Rain = 0
KVP1 072039Z 34011KT 03/M11 A3035 RMK A01 T00311109  RH  035%=      5-min Rain = 0
KVP1 072040Z 33011KT 03/M11 A3035 RMK A01 T00331110  RH  034%=      5-min Rain = 0
KVP1 072041Z 33011KT 03/M11 A3034 RMK A01 T00301113  RH  034%=      5-min Rain = 0
KVP1 072042Z 33015KT 03/M11 A3034 RMK A01 T00311110  RH  035%=      5-min Rain = 0
KVP1 072043Z 34011KT 03/M11 A3034 RMK A01 T00311111  RH  035%=      5-min Rain = 0
KVP1 072044Z 35012G17KT 03/M11 A3034 RMK A01 T00311110  RH  035%=      5-min Rain = 0
KVP1 072045Z 33012KT 03/M11 A3034 RMK A01 T00301112  RH  035%=      5-min Rain = 0
KVP1 072046Z 35013KT 03/M11 A3034 RMK A01 T00311109  RH  035%=      5-min Rain = 0
KVP1 072047Z 00012KT 03/M11 A3034 RMK A01 T00321109  RH  035%=      5-min Rain = 0
KVP1 072048Z 00009KT 03/M11 A3034 RMK A01 T00311111  RH  034%=      5-min Rain = 0
KVP1 072049Z 34010KT 03/M11 A3034 RMK A01 T00301111  RH  035%=      5-min Rain = 0
KVP1 072050Z 35010KT 03/M11 A3034 RMK A01 T00301111  RH  035%=      5-min Rain = 0
KVP1 072051Z 35009KT 03/M11 A3034 RMK A01 T00291110  RH  035%=      5-min Rain = 0
KVP1 072052Z 36009G14KT 03/M11 A3034 RMK A01 T00291110  RH  035%=      5-min Rain = 0
KVP1 072053Z 34013KT 03/M11 A3034 RMK A01 T00301109  RH  035%=      5-min Rain = 0
KVP1 072054Z 33013KT 03/M11 A3034 RMK A01 T00321109  RH  035%=      5-min Rain = 0
KVP1 072055Z 33012KT 03/M11 A3034 RMK A01 T00331111  RH  034%=      5-min Rain = 0
KVP1 072056Z 36013KT 03/M11 A3034 RMK A01 T00341109  RH  034%=      5-min Rain = 0
KVP1 072057Z 35012KT 04/M11 A3034 RMK A01 T00361109  RH  034%=      5-min Rain = 0
KVP1 072058Z 35010KT 03/M11 A3034 RMK A01 T00331112  RH  034%=      5-min Rain = 0
KVP1 072059Z 35012KT 03/M11 A3034 RMK A01 T00341110  RH  034%=      5-min Rain = 0
KVP1 072100Z 34010KT 04/M11 A3034 RMK A01 T00351110  RH  034%=      5-min Rain = 0
KVP1 072101Z 35008KT 03/M11 A3034 RMK A01 T00341110  RH  034%=      5-min Rain = 0
KVP1 072102Z 33011G17KT 04/M11 A3034 RMK A01 T00361109  RH  034%=      5-min Rain = 0
KVP1 072103Z 33011KT 04/M11 A3034 RMK A01 T00371108  RH  034%=      5-min Rain = 0
KVP1 072104Z 33012KT 04/M11 A3034 RMK A01 T00371108  RH  034%=      5-min Rain = 0
KVP1 072105Z 33013KT 04/M11 A3034 RMK A01 T00361108  RH  034%=      5-min Rain = 0
KVP1 072106Z 34015G21KT 04/M11 A3034 RMK A01 T00361107  RH  034%=      5-min Rain = 0
KVP1 072107Z 00010KT 04/M11 A3034 RMK A01 T00361108  RH  034%=      5-min Rain = 0
KVP1 072108Z 35007KT 04/M11 A3034 RMK A01 T00351108  RH  034%=      5-min Rain = 0
KVP1 072109Z 34010KT 04/M11 A3034 RMK A01 T00381105  RH  034%=      5-min Rain = 0
KVP1 072110Z 33010KT 04/M11 A3033 RMK A01 T00401105  RH  034%=      5-min Rain = 0
KVP1 072111Z 32012KT 04/M11 A3033 RMK A01 T00401108  RH  033%=      5-min Rain = 0
KVP1 072112Z 32012KT 04/M11 A3033 RMK A01 T00391109  RH  033%=      5-min Rain = 0
KVP1 072113Z 35010KT 04/M11 A3033 RMK A01 T00381109  RH  033%=      5-min Rain = 0
KVP1 072114Z 35010KT 04/M11 A3033 RMK A01 T00381109  RH  033%=      5-min Rain = 0
KVP1 072115Z 35011KT 04/M11 A3033 RMK A01 T00361110  RH  034%=      5-min Rain = 0
KVP1 072116Z 35013KT 04/M11 A3033 RMK A01 T00361109  RH  034%=      5-min Rain = 0
KVP1 072117Z 35011KT 03/M11 A3033 RMK A01 T00331112  RH  034%=      5-min Rain = 0
KVP1 072118Z 35011KT 03/M11 A3033 RMK A01 T00321111  RH  034%=      5-min Rain = 0
KVP1 072119Z 35010KT 03/M11 A3033 RMK A01 T00321110  RH  034%=      5-min Rain = 0
KVP1 072120Z 34014KT 03/M11 A3033 RMK A01 T00341109  RH  034%=      5-min Rain = 0
KVP1 072121Z 34010KT 03/M11 A3033 RMK A01 T00341109  RH  034%=      5-min Rain = 0
KVP1 072122Z 36012KT 03/M11 A3033 RMK A01 T00341111  RH  034%=      5-min Rain = 0
KVP1 072123Z 35010KT 03/M11 A3033 RMK A01 T00321111  RH  034%=      5-min Rain = 0
KVP1 072124Z 35010KT 03/M11 A3033 RMK A01 T00321110  RH  034%=      5-min Rain = 0
KVP1 072125Z 36009KT 03/M11 A3033 RMK A01 T00321110  RH  034%=      5-min Rain = 0
KVP1 072126Z 35008KT 03/M11 A3033 RMK A01 T00331111  RH  034%=      5-min Rain = 0
KVP1 072127Z 34007KT 03/M11 A3033 RMK A01 T00331110  RH  034%=      5-min Rain = 0
KVP1 072128Z 35009KT 04/M11 A3033 RMK A01 T00351111  RH  034%=      5-min Rain = 0
KVP1 072129Z 33010KT 03/M11 A3033 RMK A01 T00341112  RH  033%=      5-min Rain = 0
KVP1 072130Z 32013KT 04/M11 A3033 RMK A01 T00361112  RH  033%=      5-min Rain = 0
KVP1 072131Z 32011KT 04/M11 A3033 RMK A01 T00371114  RH  032%=      5-min Rain = 0
KVP1 072132Z 32015KT 04/M11 A3033 RMK A01 T00371113  RH  032%=      5-min Rain = 0
KVP1 072133Z 32011KT 04/M11 A3033 RMK A01 T00371114  RH  032%=      5-min Rain = 0
KVP1 072134Z 32012KT 04/M11 A3033 RMK A01 T00361114  RH  033%=      5-min Rain = 0
KVP1 072135Z 32013KT 03/M11 A3032 RMK A01 T00341114  RH  033%=      5-min Rain = 0
KVP1 072136Z 33011KT 03/M11 A3032 RMK A01 T00341113  RH  033%=      5-min Rain = 0
KVP1 072137Z 33011KT 04/M11 A3032 RMK A01 T00361111  RH  033%=      5-min Rain = 0
KVP1 072138Z 34014KT 04/M11 A3032 RMK A01 T00361113  RH  033%=      5-min Rain = 0
KVP1 072139Z 34014KT 04/M11 A3032 RMK A01 T00361114  RH  033%=      5-min Rain = 0
KVP1 072140Z 34015KT 03/M12 A3032 RMK A01 T00341115  RH  033%=      5-min Rain = 0
KVP1 072141Z 34014KT 03/M12 A3032 RMK A01 T00311117  RH  033%=      5-min Rain = 0
KVP1 072142Z 35013KT 03/M11 A3032 RMK A01 T00321114  RH  033%=      5-min Rain = 0
KVP1 072143Z 35015KT 03/M11 A3032 RMK A01 T00331114  RH  033%=      5-min Rain = 0
KVP1 072144Z 34014KT 03/M11 A3032 RMK A01 T00341113  RH  033%=      5-min Rain = 0
KVP1 072145Z 33015KT 04/M11 A3032 RMK A01 T00351114  RH  033%=      5-min Rain = 0
KVP1 072146Z 34013KT 03/M12 A3032 RMK A01 T00341115  RH  033%=      5-min Rain = 0
KVP1 072147Z 34011KT 03/M12 A3032 RMK A01 T00341115  RH  033%=      5-min Rain = 0
KVP1 072148Z 33010KT 04/M11 A3032 RMK A01 T00351114  RH  033%=      5-min Rain = 0
KVP1 072149Z 32011G16KT 04/M11 A3032 RMK A01 T00361113  RH  033%=      5-min Rain = 0
KVP1 072150Z 31010G15KT 04/M11 A3032 RMK A01 T00361114  RH  032%=      5-min Rain = 0
KVP1 072151Z 32011KT 04/M12 A3032 RMK A01 T00361115  RH  032%=      5-min Rain = 0
KVP1 072152Z 32010KT 04/M11 A3032 RMK A01 T00361114  RH  032%=      5-min Rain = 0
KVP1 072153Z 31010KT 04/M11 A3032 RMK A01 T00371113  RH  032%=      5-min Rain = 0
KVP1 072154Z 32011KT 04/M11 A3032 RMK A01 T00381114  RH  032%=      5-min Rain = 0
KVP1 072155Z 33010KT 04/M12 A3032 RMK A01 T00371116  RH  032%=      5-min Rain = 0
KVP1 072156Z 33008KT 04/M12 A3032 RMK A01 T00351117  RH  032%=      5-min Rain = 0
KVP1 072157Z 33012KT 04/M12 A3032 RMK A01 T00361116  RH  032%=      5-min Rain = 0
KVP1 072158Z 34012KT 04/M11 A3032 RMK A01 T00361114  RH  032%=      5-min Rain = 0
KVP1 072159Z 35008KT 04/M12 A3032 RMK A01 T00351115  RH  032%=      5-min Rain = 0
KVP1 072200Z 33009KT 03/M12 A3032 RMK A01 T00341115  RH  033%=      5-min Rain = 0
KVP1 072201Z 32009KT 04/M11 A3032 RMK A01 T00361113  RH  033%=      5-min Rain = 0
KVP1 072202Z 32009KT 04/M11 A3032 RMK A01 T00371113  RH  033%=      5-min Rain = 0
KVP1 072203Z 32007KT 04/M11 A3031 RMK A01 T00371114  RH  032%=      5-min Rain = 0
KVP1 072204Z 34009KT 04/M11 A3031 RMK A01 T00371113  RH  032%=      5-min Rain = 0
KVP1 072205Z 33009KT 04/M11 A3031 RMK A01 T00381112  RH  032%=      5-min Rain = 0
KVP1 072206Z 34011KT 04/M11 A3031 RMK A01 T00391113  RH  032%=      5-min Rain = 0
KVP1 072207Z 33012KT 04/M11 A3031 RMK A01 T00391114  RH  032%=      5-min Rain = 0
KVP1 072208Z 34010KT 04/M12 A3031 RMK A01 T00381115  RH  032%=      5-min Rain = 0
KVP1 072209Z 33011KT 04/M11 A3031 RMK A01 T00371114  RH  032%=      5-min Rain = 0
KVP1 072210Z 32011KT 04/M12 A3031 RMK A01 T00371115  RH  032%=      5-min Rain = 0
KVP1 072211Z 31010KT 04/M12 A3031 RMK A01 T00371116  RH  032%=      5-min Rain = 0
KVP1 072212Z 32008KT 04/M12 A3031 RMK A01 T00371117  RH  031%=      5-min Rain = 0
KVP1 072213Z 33009KT 04/M12 A3031 RMK A01 T00361118  RH  031%=      5-min Rain = 0
KVP1 072214Z 33007KT 04/M12 A3031 RMK A01 T00361118  RH  032%=      5-min Rain = 0
KVP1 072215Z 33008KT 04/M12 A3031 RMK A01 T00361117  RH  032%=      5-min Rain = 0
KVP1 072216Z 33009KT 04/M12 A3031 RMK A01 T00361117  RH  032%=      5-min Rain = 0
KVP1 072217Z 35008KT 03/M12 A3031 RMK A01 T00341118  RH  032%=      5-min Rain = 0
KVP1 072218Z 33007KT 03/M12 A3031 RMK A01 T00341117  RH  032%=      5-min Rain = 0
KVP1 072219Z 33008KT 03/M12 A3031 RMK A01 T00341115  RH  033%=      5-min Rain = 0
KVP1 072220Z 32008KT 04/M12 A3031 RMK A01 T00351115  RH  032%=      5-min Rain = 0
KVP1 072221Z 33010KT 04/M12 A3031 RMK A01 T00351116  RH  032%=      5-min Rain = 0
KVP1 072222Z 33011KT 04/M12 A3031 RMK A01 T00351117  RH  032%=      5-min Rain = 0
KVP1 072223Z 33009KT 04/M12 A3031 RMK A01 T00361117  RH  032%=      5-min Rain = 0
KVP1 072224Z 33008KT 04/M12 A3031 RMK A01 T00361118  RH  031%=      5-min Rain = 0
KVP1 072225Z 32008KT 04/M12 A3031 RMK A01 T00361118  RH  032%=      5-min Rain = 0
KVP1 072226Z 31011KT 04/M12 A3031 RMK A01 T00361119  RH  031%=      5-min Rain = 0
KVP1 072227Z 31011KT 04/M12 A3031 RMK A01 T00351120  RH  031%=      5-min Rain = 0
KVP1 072228Z 32011KT 04/M12 A3031 RMK A01 T00351121  RH  031%=      5-min Rain = 0
KVP1 072229Z 33010KT 03/M12 A3031 RMK A01 T00341121  RH  031%=      5-min Rain = 0
KVP1 072230Z 33011KT 03/M12 A3031 RMK A01 T00331121  RH  031%=      5-min Rain = 0
KVP1 072231Z 32010KT 03/M12 A3031 RMK A01 T00331121  RH  031%=      5-min Rain = 0
KVP1 072232Z 32009KT 03/M12 A3031 RMK A01 T00321121  RH  032%=      5-min Rain = 0
KVP1 072233Z 32011KT 03/M12 A3031 RMK A01 T00331120  RH  032%=      5-min Rain = 0
KVP1 072234Z 31009KT 03/M12 A3031 RMK A01 T00331120  RH  032%=      5-min Rain = 0
KVP1 072235Z 31010KT 03/M12 A3031 RMK A01 T00331119  RH  032%=      5-min Rain = 0
KVP1 072236Z 31010KT 03/M12 A3031 RMK A01 T00331119  RH  032%=      5-min Rain = 0
KVP1 072237Z 32008KT 03/M12 A3031 RMK A01 T00331119  RH  032%=      5-min Rain = 0
KVP1 072238Z 32009KT 03/M12 A3031 RMK A01 T00321119  RH  032%=      5-min Rain = 0
KVP1 072239Z 31010KT 03/M12 A3031 RMK A01 T00331119  RH  032%=      5-min Rain = 0
KVP1 072240Z 31009KT 03/M12 A3031 RMK A01 T00321119  RH  032%=      5-min Rain = 0
KVP1 072241Z 31011KT 03/M12 A3031 RMK A01 T00321120  RH  032%=      5-min Rain = 0
KVP1 072242Z 31012KT 03/M12 A3031 RMK A01 T00321120  RH  032%=      5-min Rain = 0
KVP1 072243Z 32011KT 03/M12 A3031 RMK A01 T00321121  RH  032%=      5-min Rain = 0
KVP1 072244Z 31011KT 03/M12 A3031 RMK A01 T00311121  RH  032%=      5-min Rain = 0
KVP1 072245Z 31014KT 03/M12 A3031 RMK A01 T00321120  RH  032%=      5-min Rain = 0
KVP1 072246Z 32011KT 03/M12 A3031 RMK A01 T00311121  RH  032%=      5-min Rain = 0
KVP1 072247Z 32010KT 03/M12 A3031 RMK A01 T00311121  RH  032%=      5-min Rain = 0
KVP1 072248Z 32010KT 03/M12 A3031 RMK A01 T00301121  RH  032%=      5-min Rain = 0
KVP1 072249Z 32011KT 03/M12 A3031 RMK A01 T00301120  RH  032%=      5-min Rain = 0
KVP1 072250Z 33011KT 03/M12 A3031 RMK A01 T00301120  RH  032%=      5-min Rain = 0
KVP1 072251Z 33011KT 03/M12 A3031 RMK A01 T00291119  RH  033%=      5-min Rain = 0
KVP1 072252Z 32009KT 03/M12 A3031 RMK A01 T00291120  RH  033%=      5-min Rain = 0
KVP1 072253Z 32010KT 03/M12 A3031 RMK A01 T00281119  RH  033%=      5-min Rain = 0
KVP1 072254Z 32012KT 03/M12 A3031 RMK A01 T00281119  RH  033%=      5-min Rain = 0
KVP1 072255Z 32010KT 03/M12 A3031 RMK A01 T00291119  RH  033%=      5-min Rain = 0
KVP1 072256Z 32011KT 03/M12 A3031 RMK A01 T00281119  RH  033%=      5-min Rain = 0
KVP1 072257Z 33008KT 03/M12 A3031 RMK A01 T00281119  RH  033%=      5-min Rain = 0
KVP1 072258Z 32009KT 03/M12 A3031 RMK A01 T00271119  RH  033%=      5-min Rain = 0
KVP1 072259Z 32009KT 03/M12 A3031 RMK A01 T00261119  RH  033%=      5-min Rain = 0
KVP1 072300Z 32009KT 03/M12 A3031 RMK A01 T00261118  RH  034%=      5-min Rain = 0
KVP1 072301Z 32010KT 03/M12 A3031 RMK A01 T00261118  RH  034%=      5-min Rain = 0
KVP1 072302Z 32010KT 03/M12 A3031 RMK A01 T00251118  RH  034%=      5-min Rain = 0
KVP1 072303Z 31010KT 03/M12 A3031 RMK A01 T00251117  RH  034%=      5-min Rain = 0
KVP1 072304Z 31008KT 03/M12 A3031 RMK A01 T00251116  RH  034%=      5-min Rain = 0
KVP1 072305Z 31008KT 02/M12 A3031 RMK A01 T00241117  RH  035%=      5-min Rain = 0
KVP1 072306Z 31008KT 02/M12 A3031 RMK A01 T00231117  RH  035%=      5-min Rain = 0
KVP1 072307Z 31007KT 02/M12 A3031 RMK A01 T00221117  RH  035%=      5-min Rain = 0
KVP1 072308Z 31007KT 02/M12 A303 RMK A01 T00221117  RH  035%=      5-min Rain = 0
KVP1 072309Z 31007KT 02/M12 A303 RMK A01 T00211117  RH  035%=      5-min Rain = 0
KVP1 072310Z 31007KT 02/M12 A303 RMK A01 T00191118  RH  035%=      5-min Rain = 0
KVP1 072311Z 31007KT 02/M12 A303 RMK A01 T00181118  RH  036%=      5-min Rain = 0
KVP1 072312Z 31007KT 02/M12 A303 RMK A01 T00181118  RH  036%=      5-min Rain = 0
KVP1 072313Z 31006KT 02/M12 A303 RMK A01 T00171118  RH  036%=      5-min Rain = 0
KVP1 072314Z 31006KT 02/M12 A303 RMK A01 T00161118  RH  036%=      5-min Rain = 0
KVP1 072315Z 31006KT 02/M12 A303 RMK A01 T00151118  RH  037%=      5-min Rain = 0
KVP1 072316Z 31006KT 01/M12 A303 RMK A01 T00141118  RH  037%=      5-min Rain = 0
KVP1 072317Z 31006KT 01/M12 A303 RMK A01 T00131118  RH  037%=      5-min Rain = 0
KVP1 072318Z 31006KT 01/M12 A303 RMK A01 T00121118  RH  037%=      5-min Rain = 0
KVP1 072319Z 31007KT 01/M12 A303 RMK A01 T00111118  RH  038%=      5-min Rain = 0
KVP1 072320Z 31007KT 01/M12 A303 RMK A01 T00101118  RH  038%=      5-min Rain = 0
KVP1 072321Z 31007KT 01/M12 A303 RMK A01 T00091117  RH  038%=      5-min Rain = 0
KVP1 072322Z 31007KT 01/M12 A303 RMK A01 T00091117  RH  038%=      5-min Rain = 0
KVP1 072323Z 31006KT 01/M12 A303 RMK A01 T00081117  RH  039%=      5-min Rain = 0
KVP1 072324Z 31006KT 01/M12 A303 RMK A01 T00081117  RH  039%=      5-min Rain = 0
KVP1 072325Z 31006KT 01/M12 A303 RMK A01 T00071117  RH  039%=      5-min Rain = 0
KVP1 072326Z 31006KT 01/M12 A303 RMK A01 T00071117  RH  039%=      5-min Rain = 0
KVP1 072327Z 31006KT 01/M12 A303 RMK A01 T00051118  RH  039%=      5-min Rain = 0
KVP1 072328Z 31006KT 00/M12 A303 RMK A01 T00041118  RH  039%=      5-min Rain = 0
KVP1 072329Z 31006KT 00/M12 A303 RMK A01 T00031118  RH  040%=      5-min Rain = 0
KVP1 072330Z 31006KT 00/M12 A303 RMK A01 T00031118  RH  040%=      5-min Rain = 0
KVP1 072331Z 31005KT 00/M12 A303 RMK A01 T00021119  RH  040%=      5-min Rain = 0
KVP1 072332Z 31005KT 00/M12 A303 RMK A01 T00011119  RH  040%=      5-min Rain = 0
KVP1 072333Z 30005KT 00/12 A303 RMK A01 T00000-119  RH  040%=      5-min Rain = 0
KVP1 072334Z 30005KT 00/12 A303 RMK A01 T00-00-119  RH  041%=      5-min Rain = 0
KVP1 072335Z 30005KT M00/M12 A303 RMK A01 T10011119  RH  041%=      5-min Rain = 0
KVP1 072336Z 30005KT M00/M12 A303 RMK A01 T10021120  RH  041%=      5-min Rain = 0
KVP1 072337Z 30005KT M00/M12 A303 RMK A01 T10031120  RH  041%=      5-min Rain = 0
KVP1 072338Z 29005KT M00/M12 A303 RMK A01 T10041121  RH  041%=      5-min Rain = 0
KVP1 072339Z 29005KT M01/M12 A303 RMK A01 T10051121  RH  041%=      5-min Rain = 0
KVP1 072340Z 29005KT M01/M12 A303 RMK A01 T10071122  RH  042%=      5-min Rain = 0
KVP1 072341Z 29004KT M01/M12 A303 RMK A01 T10091123  RH  042%=      5-min Rain = 0
KVP1 072342Z 29005KT M01/M12 A303 RMK A01 T10111123  RH  042%=      5-min Rain = 0
KVP1 072343Z 29005KT M01/M12 A303 RMK A01 T10121123  RH  043%=      5-min Rain = 0
KVP1 072344Z 29005KT M01/M12 A303 RMK A01 T10131123  RH  043%=      5-min Rain = 0
KVP1 072345Z 29004KT M01/M12 A303 RMK A01 T10131122  RH  043%=      5-min Rain = 0
KVP1 072346Z 29004KT M01/M12 A303 RMK A01 T10141123  RH  043%=      5-min Rain = 0
KVP1 072347Z 29004KT M02/M12 A303 RMK A01 T10151123  RH  044%=      5-min Rain = 0
KVP1 072348Z 29005KT M02/M12 A303 RMK A01 T10151123  RH  044%=      5-min Rain = 0
KVP1 072349Z 29005KT M02/M12 A303 RMK A01 T10161122  RH  044%=      5-min Rain = 0
KVP1 072350Z 29005KT M02/M12 A303 RMK A01 T10161122  RH  044%=      5-min Rain = 0
KVP1 072351Z 30006KT M02/M12 A303 RMK A01 T10161122  RH  044%=      5-min Rain = 0
KVP1 072352Z 30006KT M02/M12 A303 RMK A01 T10161122  RH  044%=      5-min Rain = 0
KVP1 072353Z 30006KT M02/M12 A3029 RMK A01 T10161122  RH  044%=      5-min Rain = 0
KVP1 072354Z 30006KT M02/M12 A3029 RMK A01 T10161122  RH  044%=      5-min Rain = 0
KVP1 072355Z 30006KT M02/M12 A3029 RMK A01 T10171122  RH  045%=      5-min Rain = 0
KVP1 072356Z 30006KT M02/M12 A3029 RMK A01 T10171122  RH  045%=      5-min Rain = 0
KVP1 072357Z 31006KT M02/M12 A3029 RMK A01 T10181122  RH  045%=      5-min Rain = 0
KVP1 072358Z 31006KT M02/M12 A3029 RMK A01 T10191122  RH  045%=      5-min Rain = 0
KVP1 072359Z 30006KT M02/M12 A3029 RMK A01 T10191122  RH  045%=      5-min Rain = 0
KVP1 080000Z 30005KT M02/M12 A3029 RMK A01 T10191121  RH  045%=      5-min Rain = 0
KVP1 080001Z 32004KT M02/M12 A3029 RMK A01 T10201122  RH  045%=      5-min Rain = 0
KVP1 080002Z 02004KT M02/M12 A303 RMK A01 T10191121  RH  046%=      5-min Rain = 0
KVP1 080003Z 03004KT M02/M12 A3029 RMK A01 T10171119  RH  046%=      5-min Rain = 0
KVP1 080004Z 01004KT M02/M12 A3029 RMK A01 T10151118  RH  045%=      5-min Rain = 0
KVP1 080005Z 01003KT M01/M12 A3029 RMK A01 T10141118  RH  045%=      5-min Rain = 0
KVP1 080006Z 34003KT M01/M12 A303 RMK A01 T10141119  RH  045%=      5-min Rain = 0
KVP1 080007Z 33003KT M01/M12 A303 RMK A01 T10141119  RH  045%=      5-min Rain = 0
KVP1 080008Z 33002KT M01/M12 A303 RMK A01 T10141119  RH  045%=      5-min Rain = 0
KVP1 080009Z 35001KT M02/M12 A303 RMK A01 T10151121  RH  044%=      5-min Rain = 0
KVP1 080010Z 01002KT M02/M12 A303 RMK A01 T10171122  RH  044%=      5-min Rain = 0
KVP1 080011Z 01003KT M02/M12 A303 RMK A01 T10191123  RH  045%=      5-min Rain = 0
KVP1 080012Z 01003KT M02/M12 A303 RMK A01 T10201123  RH  045%=      5-min Rain = 0
KVP1 080013Z 00002KT M02/M12 A303 RMK A01 T10211122  RH  046%=      5-min Rain = 0
KVP1 080014Z 00003KT M02/M12 A303 RMK A01 T10211121  RH  046%=      5-min Rain = 0
KVP1 080015Z 36003KT M02/M12 A303 RMK A01 T10211121  RH  046%=      5-min Rain = 0
KVP1 080016Z 00003KT M02/M12 A303 RMK A01 T10201120  RH  046%=      5-min Rain = 0
KVP1 080017Z 00003KT M02/M12 A303 RMK A01 T10191119  RH  046%=      5-min Rain = 0
KVP1 080018Z 00003KT M02/M12 A303 RMK A01 T10181118  RH  046%=      5-min Rain = 0
KVP1 080019Z 36004KT M02/M12 A303 RMK A01 T10181120  RH  046%=      5-min Rain = 0
KVP1 080020Z 36004KT M02/M12 A303 RMK A01 T10171119  RH  046%=      5-min Rain = 0
KVP1 080021Z 36004KT M01/M12 A303 RMK A01 T10131116  RH  046%=      5-min Rain = 0
KVP1 080022Z 00004KT M01/M11 A303 RMK A01 T10091114  RH  045%=      5-min Rain = 0
KVP1 080023Z 01003KT M01/M12 A303 RMK A01 T10061115  RH  044%=      5-min Rain = 0
KVP1 080024Z 02003KT M00/M12 A303 RMK A01 T10041116  RH  043%=      5-min Rain = 0
KVP1 080025Z 02003KT M00/M12 A303 RMK A01 T10031116  RH  042%=      5-min Rain = 0
KVP1 080026Z 02002KT M00/M12 A303 RMK A01 T10021116  RH  042%=      5-min Rain = 0
KVP1 080027Z 02003KT M00/M12 A303 RMK A01 T10011116  RH  041%=      5-min Rain = 0
KVP1 080028Z 02002KT 00/12 A303 RMK A01 T00-00-117  RH  041%=      5-min Rain = 0
KVP1 080029Z 03002KT 00/M12 A303 RMK A01 T00011116  RH  041%=      5-min Rain = 0
KVP1 080030Z 04002KT 00/M12 A303 RMK A01 T00021116  RH  041%=      5-min Rain = 0
KVP1 080031Z 05002KT 00/M12 A303 RMK A01 T00031116  RH  040%=      5-min Rain = 0
KVP1 080032Z 04002KT 00/M12 A303 RMK A01 T00031117  RH  040%=      5-min Rain = 0
KVP1 080033Z 04002KT 00/M12 A303 RMK A01 T00021117  RH  040%=      5-min Rain = 0
KVP1 080034Z 04002KT 00/M12 A303 RMK A01 T00011118  RH  040%=      5-min Rain = 0
KVP1 080035Z 05002KT 00/12 A303 RMK A01 T00000-118  RH  041%=      5-min Rain = 0
KVP1 080036Z 04002KT M00/M12 A303 RMK A01 T10011118  RH  041%=      5-min Rain = 0
KVP1 080037Z 04002KT M00/M12 A303 RMK A01 T10011118  RH  041%=      5-min Rain = 0
KVP1 080038Z 04002KT M00/M12 A303 RMK A01 T10021119  RH  041%=      5-min Rain = 0
KVP1 080039Z 04001KT M00/M12 A303 RMK A01 T10021118  RH  041%=      5-min Rain = 0
KVP1 080040Z 04001KT M00/M12 A303 RMK A01 T10031118  RH  041%=      5-min Rain = 0
KVP1 080041Z 04001KT M01/M12 A303 RMK A01 T10051120  RH  041%=      5-min Rain = 0
KVP1 080042Z 04000KT M01/M12 A303 RMK A01 T10111123  RH  042%=      5-min Rain = 0
KVP1 080043Z 00000KT M02/M12 A303 RMK A01 T10151124  RH  043%=      5-min Rain = 0
KVP1 080044Z 28001KT M02/M13 A303 RMK A01 T10221129  RH  044%=      5-min Rain = 0
KVP1 080045Z 27004KT M03/M14 A303 RMK A01 T10331136  RH  045%=      5-min Rain = 0
KVP1 080046Z 27004KT M04/M14 A303 RMK A01 T10431139  RH  047%=      5-min Rain = 0
KVP1 080047Z 27005KT M05/M14 A303 RMK A01 T10481136  RH  050%=      5-min Rain = 0
KVP1 080048Z 27006KT M05/M13 A303 RMK A01 T10501134  RH  052%=      5-min Rain = 0
KVP1 080049Z 27006KT M05/M13 A303 RMK A01 T10511132  RH  053%=      5-min Rain = 0
KVP1 080050Z 27006KT M05/M13 A303 RMK A01 T10521131  RH  054%=      5-min Rain = 0
KVP1 080051Z 27007KT M05/M13 A303 RMK A01 T10521131  RH  054%=      5-min Rain = 0
KVP1 080052Z 27007KT M05/M13 A303 RMK A01 T10521130  RH  054%=      5-min Rain = 0
KVP1 080053Z 28007KT M05/M13 A303 RMK A01 T10511130  RH  054%=      5-min Rain = 0
KVP1 080054Z 28007KT M05/M13 A303 RMK A01 T10511129  RH  054%=      5-min Rain = 0
KVP1 080055Z 28007KT M05/M13 A303 RMK A01 T10511130  RH  054%=      5-min Rain = 0
KVP1 080056Z 28006KT M05/M13 A303 RMK A01 T10511130  RH  054%=      5-min Rain = 0
KVP1 080057Z 29006KT M05/M13 A303 RMK A01 T10511129  RH  054%=      5-min Rain = 0
KVP1 080058Z 29005KT M05/M13 A303 RMK A01 T10501129  RH  054%=      5-min Rain = 0
KVP1 080059Z 30004KT M05/M13 A303 RMK A01 T10501128  RH  054%=      5-min Rain = 0
KVP1 080100Z 30004KT M05/M13 A303 RMK A01 T10491126  RH  055%=      5-min Rain = 0
KVP1 080101Z 31004KT M05/M12 A303 RMK A01 T10461123  RH  055%=      5-min Rain = 0
KVP1 080102Z 32004KT M04/M12 A303 RMK A01 T10431121  RH  054%=      5-min Rain = 0
KVP1 080103Z 33004KT M04/M12 A303 RMK A01 T10371118  RH  053%=      5-min Rain = 0
KVP1 080104Z 33003KT M03/M12 A303 RMK A01 T10301115  RH  052%=      5-min Rain = 0
KVP1 080105Z 32004KT M02/M11 A303 RMK A01 T10231114  RH  050%=      5-min Rain = 0
KVP1 080106Z 33004KT M02/M11 A303 RMK A01 T10181114  RH  048%=      5-min Rain = 0
KVP1 080107Z 32003KT M02/M12 A303 RMK A01 T10151115  RH  046%=      5-min Rain = 0
KVP1 080108Z 32003KT M01/M12 A303 RMK A01 T10131116  RH  045%=      5-min Rain = 0
KVP1 080109Z 32003KT M01/M12 A303 RMK A01 T10111116  RH  045%=      5-min Rain = 0
KVP1 080110Z 33004KT M01/M12 A303 RMK A01 T10091117  RH  044%=      5-min Rain = 0
KVP1 080111Z 33004KT M01/M12 A303 RMK A01 T10091118  RH  043%=      5-min Rain = 0
KVP1 080112Z 34004KT M01/M12 A303 RMK A01 T10091118  RH  043%=      5-min Rain = 0
KVP1 080113Z 34003KT M01/M12 A303 RMK A01 T10091119  RH  043%=      5-min Rain = 0
KVP1 080114Z 33003KT M01/M12 A303 RMK A01 T10101120  RH  043%=      5-min Rain = 0
KVP1 080115Z 33003KT M01/M12 A303 RMK A01 T10111119  RH  044%=      5-min Rain = 0
KVP1 080116Z 33003KT M01/M12 A303 RMK A01 T10111119  RH  044%=      5-min Rain = 0
KVP1 080117Z 33003KT M01/M12 A303 RMK A01 T10111119  RH  044%=      5-min Rain = 0
KVP1 080118Z 33003KT M01/M12 A303 RMK A01 T10111119  RH  044%=      5-min Rain = 0
KVP1 080119Z 33003KT M01/M12 A303 RMK A01 T10121119  RH  044%=      5-min Rain = 0
KVP1 080120Z 33003KT M02/M12 A303 RMK A01 T10161123  RH  044%=      5-min Rain = 0
KVP1 080121Z 33003KT M02/M13 A303 RMK A01 T10201125  RH  045%=      5-min Rain = 0
KVP1 080122Z 34003KT M02/M12 A303 RMK A01 T10221123  RH  046%=      5-min Rain = 0
KVP1 080123Z 34003KT M02/M12 A303 RMK A01 T10211120  RH  046%=      5-min Rain = 0
KVP1 080124Z 34002KT M02/M12 A303 RMK A01 T10191119  RH  046%=      5-min Rain = 0
KVP1 080125Z 32004KT M02/M12 A303 RMK A01 T10191120  RH  046%=      5-min Rain = 0
KVP1 080126Z 32004KT M02/M12 A303 RMK A01 T10181119  RH  046%=      5-min Rain = 0
KVP1 080127Z 33004KT M02/M12 A303 RMK A01 T10151117  RH  046%=      5-min Rain = 0
KVP1 080128Z 33003KT M01/M12 A303 RMK A01 T10131117  RH  045%=      5-min Rain = 0
KVP1 080129Z 32003KT M01/M12 A303 RMK A01 T10131118  RH  045%=      5-min Rain = 0
KVP1 080130Z 32003KT M01/M12 A303 RMK A01 T10121118  RH  044%=      5-min Rain = 0
KVP1 080131Z 31004KT M01/M12 A303 RMK A01 T10131119  RH  044%=      5-min Rain = 0
KVP1 080132Z 31003KT M02/M12 A303 RMK A01 T10151121  RH  044%=      5-min Rain = 0
KVP1 080133Z 31003KT M02/M12 A303 RMK A01 T10161121  RH  045%=      5-min Rain = 0
KVP1 080134Z 31003KT M02/M12 A303 RMK A01 T10181122  RH  045%=      5-min Rain = 0
KVP1 080135Z 31003KT M02/M12 A303 RMK A01 T10191122  RH  045%=      5-min Rain = 0
KVP1 080136Z 29004KT M02/M12 A303 RMK A01 T10211123  RH  046%=      5-min Rain = 0
KVP1 080137Z 29004KT M02/M12 A303 RMK A01 T10231123  RH  046%=      5-min Rain = 0
KVP1 080138Z 30003KT M02/M12 A303 RMK A01 T10231122  RH  047%=      5-min Rain = 0
KVP1 080139Z 29005KT M02/M12 A303 RMK A01 T10221121  RH  047%=      5-min Rain = 0
KVP1 080140Z 31003KT M02/M12 A303 RMK A01 T10241122  RH  047%=      5-min Rain = 0
KVP1 080141Z 28004KT M03/M12 A303 RMK A01 T10261123  RH  047%=      5-min Rain = 0
KVP1 080142Z 28004KT M03/M12 A303 RMK A01 T10281124  RH  048%=      5-min Rain = 0
KVP1 080143Z 29002KT M03/M12 A303 RMK A01 T10271121  RH  048%=      5-min Rain = 0
KVP1 080144Z 30002KT M03/M12 A303 RMK A01 T10271122  RH  048%=      5-min Rain = 0
KVP1 080145Z 30003KT M03/M13 A303 RMK A01 T10311127  RH  048%=      5-min Rain = 0
KVP1 080146Z 32002KT M04/M13 A303 RMK A01 T10361129  RH  048%=      5-min Rain = 0
KVP1 080147Z 30003KT M04/M13 A303 RMK A01 T10391129  RH  050%=      5-min Rain = 0
KVP1 080148Z 31001KT M04/M12 A303 RMK A01 T10381124  RH  051%=      5-min Rain = 0
KVP1 080149Z 32002KT M04/M12 A303 RMK A01 T10361121  RH  052%=      5-min Rain = 0
KVP1 080150Z 32002KT M03/M12 A303 RMK A01 T10331120  RH  051%=      5-min Rain = 0
KVP1 080151Z 32003KT M03/M12 A303 RMK A01 T10311119  RH  051%=      5-min Rain = 0
KVP1 080152Z 32003KT M03/M12 A303 RMK A01 T10291119  RH  050%=      5-min Rain = 0
KVP1 080153Z 31002KT M03/M12 A303 RMK A01 T10271119  RH  049%=      5-min Rain = 0
KVP1 080154Z 30002KT M03/M12 A303 RMK A01 T10271120  RH  049%=      5-min Rain = 0
KVP1 080155Z 29002KT M03/M12 A303 RMK A01 T10261120  RH  048%=      5-min Rain = 0
KVP1 080156Z 27002KT M03/M12 A303 RMK A01 T10261120  RH  048%=      5-min Rain = 0
KVP1 080157Z 26003KT M03/M12 A303 RMK A01 T10261121  RH  048%=      5-min Rain = 0
KVP1 080158Z 29002KT M03/M12 A303 RMK A01 T10271121  RH  048%=      5-min Rain = 0
KVP1 080159Z 29002KT M03/M12 A303 RMK A01 T10271120  RH  049%=      5-min Rain = 0
KVP1 080200Z 30002KT M03/M12 A303 RMK A01 T10251120  RH  048%=      5-min Rain = 0
KVP1 080201Z 29002KT M03/M12 A303 RMK A01 T10261121  RH  048%=      5-min Rain = 0
KVP1 080202Z 29002KT M03/M12 A303 RMK A01 T10261121  RH  048%=      5-min Rain = 0
KVP1 080203Z 28002KT M03/M12 A303 RMK A01 T10291123  RH  048%=      5-min Rain = 0
KVP1 080204Z 28003KT M03/M12 A303 RMK A01 T10311124  RH  049%=      5-min Rain = 0
KVP1 080205Z 29003KT M03/M12 A303 RMK A01 T10321124  RH  049%=      5-min Rain = 0
KVP1 080206Z 28003KT M03/M12 A303 RMK A01 T10321123  RH  049%=      5-min Rain = 0
KVP1 080207Z 29003KT M03/M12 A303 RMK A01 T10311122  RH  049%=      5-min Rain = 0
KVP1 080208Z 29002KT M03/M12 A303 RMK A01 T10301122  RH  049%=      5-min Rain = 0
KVP1 080209Z 28003KT M03/M12 A303 RMK A01 T10301122  RH  049%=      5-min Rain = 0
KVP1 080210Z 29003KT M03/M12 A303 RMK A01 T10291122  RH  049%=      5-min Rain = 0
KVP1 080211Z 29003KT M03/M12 A303 RMK A01 T10291121  RH  049%=      5-min Rain = 0
KVP1 080212Z 30003KT M03/M12 A303 RMK A01 T10281121  RH  049%=      5-min Rain = 0
KVP1 080213Z 30003KT M03/M12 A303 RMK A01 T10281121  RH  049%=      5-min Rain = 0
KVP1 080214Z 30004KT M03/M12 A303 RMK A01 T10291122  RH  049%=      5-min Rain = 0
KVP1 080215Z 30003KT M03/M13 A303 RMK A01 T10321125  RH  049%=      5-min Rain = 0
KVP1 080216Z 29003KT M03/M12 A3029 RMK A01 T10341124  RH  050%=      5-min Rain = 0
KVP1 080217Z 29004KT M03/M12 A3029 RMK A01 T10331122  RH  050%=      5-min Rain = 0
KVP1 080218Z 28004KT M03/M12 A3029 RMK A01 T10321123  RH  049%=      5-min Rain = 0
KVP1 080219Z 29004KT M04/M13 A3029 RMK A01 T10361127  RH  049%=      5-min Rain = 0
KVP1 080220Z 29004KT M04/M13 A3029 RMK A01 T10411130  RH  050%=      5-min Rain = 0
KVP1 080221Z 28004KT M05/M13 A3029 RMK A01 T10461130  RH  052%=      5-min Rain = 0
KVP1 080222Z 28004KT M05/M13 A3029 RMK A01 T10491129  RH  053%=      5-min Rain = 0
KVP1 080223Z 27003KT M05/M13 A3029 RMK A01 T10491128  RH  054%=      5-min Rain = 0
KVP1 080224Z 27004KT M05/M13 A3029 RMK A01 T10481126  RH  054%=      5-min Rain = 0
KVP1 080225Z 28004KT M05/M13 A3029 RMK A01 T10471126  RH  054%=      5-min Rain = 0
KVP1 080226Z 28004KT M05/M13 A3029 RMK A01 T10471126  RH  054%=      5-min Rain = 0
KVP1 080227Z 27003KT M05/M13 A3029 RMK A01 T10481127  RH  054%=      5-min Rain = 0
KVP1 080228Z 26004KT M05/M13 A3029 RMK A01 T10481128  RH  054%=      5-min Rain = 0
KVP1 080229Z 26004KT M05/M13 A3029 RMK A01 T10481129  RH  053%=      5-min Rain = 0
KVP1 080230Z 26004KT M05/M13 A3029 RMK A01 T10501130  RH  053%=      5-min Rain = 0
KVP1 080231Z 26004KT M05/M13 A3029 RMK A01 T10521131  RH  054%=      5-min Rain = 0
KVP1 080232Z 26004KT M05/M13 A3029 RMK A01 T10541132  RH  054%=      5-min Rain = 0
KVP1 080233Z 25004KT M06/M13 A3029 RMK A01 T10551131  RH  055%=      5-min Rain = 0
KVP1 080234Z 25004KT M06/M13 A3029 RMK A01 T10561131  RH  055%=      5-min Rain = 0
KVP1 080235Z 25004KT M06/M13 A3029 RMK A01 T10581133  RH  055%=      5-min Rain = 0
KVP1 080236Z 25005KT M06/M13 A3029 RMK A01 T10601133  RH  056%=      5-min Rain = 0
KVP1 080237Z 26005KT M06/M13 A3029 RMK A01 T10621134  RH  057%=      5-min Rain = 0
KVP1 080238Z 26005KT M06/M13 A3029 RMK A01 T10641134  RH  057%=      5-min Rain = 0
KVP1 080239Z 27005KT M07/M14 A3029 RMK A01 T10661135  RH  058%=      5-min Rain = 0
KVP1 080240Z 27005KT M07/M14 A3029 RMK A01 T10671135  RH  059%=      5-min Rain = 0
KVP1 080241Z 27004KT M07/M14 A3029 RMK A01 T10691135  RH  059%=      5-min Rain = 0
KVP1 080242Z 27004KT M07/M13 A3029 RMK A01 T10691134  RH  060%=      5-min Rain = 0
KVP1 080243Z 27004KT M07/M13 A3029 RMK A01 T10701134  RH  060%=      5-min Rain = 0
KVP1 080244Z 27005KT M07/M14 A3029 RMK A01 T10711135  RH  060%=      5-min Rain = 0
KVP1 080245Z 27005KT M07/M14 A3029 RMK A01 T10721135  RH  061%=      5-min Rain = 0
KVP1 080246Z 28006KT M07/M13 A3029 RMK A01 T10711134  RH  061%=      5-min Rain = 0
KVP1 080247Z 28006KT M07/M13 A3029 RMK A01 T10701133  RH  061%=      5-min Rain = 0
KVP1 080248Z 28005KT M07/M13 A3029 RMK A01 T10701134  RH  060%=      5-min Rain = 0
KVP1 080249Z 28005KT M07/M14 A3029 RMK A01 T10701135  RH  060%=      5-min Rain = 0
KVP1 080250Z 28006KT M07/M14 A3029 RMK A01 T10701135  RH  060%=      5-min Rain = 0
KVP1 080251Z 27005KT M07/M14 A3029 RMK A01 T10701136  RH  059%=      5-min Rain = 0
KVP1 080252Z 27005KT M07/M14 A3029 RMK A01 T10691135  RH  059%=      5-min Rain = 0
KVP1 080253Z 28005KT M07/M13 A3029 RMK A01 T10671134  RH  059%=      5-min Rain = 0
KVP1 080254Z 28004KT M07/M14 A3029 RMK A01 T10681136  RH  058%=      5-min Rain = 0
KVP1 080255Z 27004KT M07/M13 A3029 RMK A01 T10671134  RH  059%=      5-min Rain = 0
KVP1 080256Z 28004KT M07/M13 A3029 RMK A01 T10661134  RH  058%=      5-min Rain = 0
KVP1 080257Z 28004KT M07/M14 A3029 RMK A01 T10671136  RH  058%=      5-min Rain = 0
KVP1 080258Z 28004KT M07/M14 A3029 RMK A01 T10691137  RH  058%=      5-min Rain = 0
KVP1 080259Z 28005KT M07/M14 A3029 RMK A01 T10701138  RH  059%=      5-min Rain = 0
KVP1 080300Z 28005KT M07/M14 A3029 RMK A01 T10721138  RH  059%=      5-min Rain = 0
KVP1 080301Z 28004KT M07/M14 A3029 RMK A01 T10731137  RH  060%=      5-min Rain = 0
KVP1 080302Z 33003G8KT M07/M14 A3029 RMK A01 T10721136  RH  060%=      5-min Rain = 0
KVP1 080303Z 07009KT M08/M14 A303 RMK A01 T10751139  RH  060%=      5-min Rain = 0
KVP1 080304Z 05003G9KT M08/M14 A3029 RMK A01 T10791137  RH  063%=      5-min Rain = 0
KVP1 080305Z 07006KT M08/M13 A3029 RMK A01 T10791132  RH  065%=      5-min Rain = 0
KVP1 080306Z 06004KT M08/M13 A303 RMK A01 T10771129  RH  066%=      5-min Rain = 0
KVP1 080307Z 04004KT M08/M13 A303 RMK A01 T10751127  RH  066%=      5-min Rain = 0
KVP1 080308Z 05004KT M08/M13 A303 RMK A01 T10751126  RH  067%=      5-min Rain = 0
KVP1 080309Z 07003KT M07/M13 A303 RMK A01 T10741127  RH  066%=      5-min Rain = 0
KVP1 080310Z 08003KT M07/M13 A303 RMK A01 T10741127  RH  066%=      5-min Rain = 0
KVP1 080311Z 07003KT M07/M13 A303 RMK A01 T10741127  RH  066%=      5-min Rain = 0
KVP1 080312Z 07002KT M07/M13 A303 RMK A01 T10741128  RH  065%=      5-min Rain = 0
KVP1 080313Z 06002KT M07/M13 A303 RMK A01 T10741128  RH  065%=      5-min Rain = 0
KVP1 080314Z 06002KT M08/M13 A3029 RMK A01 T10751128  RH  066%=      5-min Rain = 0
KVP1 080315Z 06002KT M08/M13 A3029 RMK A01 T10751128  RH  066%=      5-min Rain = 0
KVP1 080316Z 07002KT M07/M13 A3029 RMK A01 T10741127  RH  066%=      5-min Rain = 0
KVP1 080317Z 06001KT M07/M13 A3029 RMK A01 T10731126  RH  066%=      5-min Rain = 0
KVP1 080318Z 06001KT M07/M13 A3029 RMK A01 T10721126  RH  065%=      5-min Rain = 0
KVP1 080319Z 06001KT M07/M13 A3029 RMK A01 T10721126  RH  065%=      5-min Rain = 0
KVP1 080320Z 06000KT M07/M13 A3029 RMK A01 T10721126  RH  065%=      5-min Rain = 0
KVP1 080329Z 06000KT M06/M12 A3029 RMK A01 T10601119  RH  063%=      5-min Rain = 0
KVP1 080330Z 06001KT M06/M12 A3029 RMK A01 T10591122  RH  061%=      5-min Rain = 0
KVP1 080331Z 06000KT M06/M12 A3029 RMK A01 T10591123  RH  061%=      5-min Rain = 0
KVP1 080332Z 00000KT M06/M13 A3029 RMK A01 T10611127  RH  060%=      5-min Rain = 0
KVP1 080333Z 00000KT M07/M13 A3029 RMK A01 T10681134  RH  059%=      5-min Rain = 0
KVP1 080334Z 31000KT M08/M14 A3029 RMK A01 T10751139  RH  060%=      5-min Rain = 0
KVP1 080335Z 32001KT M08/M14 A3029 RMK A01 T10821143  RH  061%=      5-min Rain = 0
KVP1 080336Z 32001KT M09/M14 A3029 RMK A01 T10861141  RH  064%=      5-min Rain = 0
KVP1 080337Z 32001KT M08/M13 A3029 RMK A01 T10841133  RH  068%=      5-min Rain = 0
KVP1 080338Z 32001KT M08/M12 A3029 RMK A01 T10771123  RH  070%=      5-min Rain = 0
KVP1 080339Z 32001KT M07/M12 A3029 RMK A01 T10721121  RH  068%=      5-min Rain = 0
KVP1 080340Z 32001KT M07/M12 A3029 RMK A01 T10711124  RH  066%=      5-min Rain = 0
KVP1 080341Z 32001KT M07/M12 A3029 RMK A01 T10691124  RH  065%=      5-min Rain = 0
KVP1 080342Z 32001KT M07/M12 A3029 RMK A01 T10671124  RH  064%=      5-min Rain = 0
KVP1 080343Z 31001KT M07/M12 A3029 RMK A01 T10651123  RH  063%=      5-min Rain = 0
KVP1 080344Z 31001KT M07/M13 A3029 RMK A01 T10651126  RH  062%=      5-min Rain = 0
KVP1 080345Z 31001KT M07/M13 A3029 RMK A01 T10701133  RH  061%=      5-min Rain = 0
KVP1 080346Z 31000KT M07/M13 A3029 RMK A01 T10731133  RH  062%=      5-min Rain = 0
KVP1 080347Z 00000KT M07/M13 A3029 RMK A01 T10721128  RH  064%=      5-min Rain = 0
KVP1 080348Z 00000KT M07/M13 A3029 RMK A01 T10701127  RH  064%=      5-min Rain = 0
KVP1 080349Z 31000KT M07/M13 A3029 RMK A01 T10711130  RH  063%=      5-min Rain = 0
KVP1 080350Z 30001KT M08/M13 A3029 RMK A01 T10751134  RH  062%=      5-min Rain = 0
KVP1 080351Z 29002KT M08/M14 A3029 RMK A01 T10781135  RH  063%=      5-min Rain = 0
KVP1 080352Z 29002KT M08/M14 A3029 RMK A01 T10801135  RH  065%=      5-min Rain = 0
KVP1 080353Z 29002KT M08/M14 A3029 RMK A01 T10811135  RH  065%=      5-min Rain = 0
KVP1 080354Z 29001KT M08/M13 A3029 RMK A01 T10811133  RH  066%=      5-min Rain = 0
KVP1 080355Z 29001KT M08/M13 A3029 RMK A01 T10801132  RH  067%=      5-min Rain = 0
KVP1 080356Z 29002KT M08/M13 A3029 RMK A01 T10801132  RH  066%=      5-min Rain = 0
KVP1 080357Z 28002KT M08/M13 A3029 RMK A01 T10821134  RH  066%=      5-min Rain = 0
KVP1 080358Z 28002KT M09/M14 A3029 RMK A01 T10851137  RH  066%=      5-min Rain = 0
KVP1 080359Z 28002KT M09/M14 A3028 RMK A01 T10861136  RH  067%=      5-min Rain = 0
KVP1 080400Z 28002KT M09/M14 A3028 RMK A01 T10871135  RH  068%=      5-min Rain = 0
KVP1 080401Z 28002KT M09/M14 A3028 RMK A01 T10881135  RH  068%=      5-min Rain = 0
KVP1 080402Z 28002KT M09/M14 A3028 RMK A01 T10891136  RH  069%=      5-min Rain = 0
KVP1 080403Z 28002KT M09/M13 A3028 RMK A01 T10891134  RH  070%=      5-min Rain = 0
KVP1 080404Z 29002KT M09/M13 A3028 RMK A01 T10881133  RH  070%=      5-min Rain = 0
KVP1 080405Z 29002KT M09/M13 A3028 RMK A01 T10881132  RH  070%=      5-min Rain = 0
KVP1 080406Z 29001KT M09/M13 A3028 RMK A01 T10871132  RH  070%=      5-min Rain = 0
KVP1 080407Z 29001KT M09/M13 A3028 RMK A01 T10861132  RH  069%=      5-min Rain = 0
KVP1 080408Z 29001KT M09/M13 A3028 RMK A01 T10851132  RH  069%=      5-min Rain = 0
KVP1 080409Z 29001KT M09/M13 A3028 RMK A01 T10851131  RH  069%=      5-min Rain = 0
KVP1 080410Z 29001KT M08/M13 A3028 RMK A01 T10841130  RH  069%=      5-min Rain = 0
KVP1 080411Z 28002KT M08/M13 A3028 RMK A01 T10841130  RH  069%=      5-min Rain = 0
KVP1 080412Z 28003KT M08/M13 A3028 RMK A01 T10831131  RH  069%=      5-min Rain = 0
KVP1 080413Z 28003KT M08/M13 A3028 RMK A01 T10831131  RH  069%=      5-min Rain = 0
KVP1 080414Z 28003KT M08/M13 A3028 RMK A01 T10831130  RH  069%=      5-min Rain = 0
KVP1 080415Z 28003KT M08/M13 A3028 RMK A01 T10821130  RH  068%=      5-min Rain = 0
KVP1 080416Z 28003KT M08/M13 A3028 RMK A01 T10841134  RH  067%=      5-min Rain = 0
KVP1 080417Z 29003KT M09/M14 A3028 RMK A01 T10871138  RH  067%=      5-min Rain = 0
KVP1 080418Z 29003KT M09/M14 A3028 RMK A01 T10891137  RH  068%=      5-min Rain = 0
KVP1 080419Z 29004KT M09/M14 A3028 RMK A01 T10901137  RH  069%=      5-min Rain = 0
KVP1 080420Z 29004KT M09/M14 A3028 RMK A01 T10921138  RH  069%=      5-min Rain = 0
KVP1 080421Z 29003KT M09/M14 A3028 RMK A01 T10931138  RH  070%=      5-min Rain = 0
KVP1 080422Z 29003KT M09/M14 A3028 RMK A01 T10941137  RH  070%=      5-min Rain = 0
KVP1 080423Z 30003KT M09/M14 A3028 RMK A01 T10941137  RH  071%=      5-min Rain = 0
KVP1 080424Z 30004KT M09/M14 A3028 RMK A01 T10941136  RH  072%=      5-min Rain = 0
KVP1 080425Z 30004KT M09/M14 A3028 RMK A01 T10941135  RH  072%=      5-min Rain = 0
KVP1 080426Z 30004KT M09/M14 A3028 RMK A01 T10941136  RH  072%=      5-min Rain = 0
KVP1 080427Z 29004KT M09/M14 A3028 RMK A01 T10941135  RH  072%=      5-min Rain = 0
KVP1 080428Z 29004KT M09/M14 A3028 RMK A01 T10941135  RH  072%=      5-min Rain = 0
KVP1 080429Z 29004KT M09/M14 A3028 RMK A01 T10941136  RH  071%=      5-min Rain = 0
KVP1 080430Z 29004KT M09/M14 A3028 RMK A01 T10931135  RH  072%=      5-min Rain = 0
KVP1 080431Z 28005KT M09/M14 A3028 RMK A01 T10931135  RH  072%=      5-min Rain = 0
KVP1 080432Z 28005KT M09/M14 A3028 RMK A01 T10941136  RH  071%=      5-min Rain = 0
KVP1 080433Z 28004KT M10/M14 A3028 RMK A01 T10951137  RH  072%=      5-min Rain = 0
KVP1 080434Z 28004KT M10/M14 A3028 RMK A01 T10961137  RH  072%=      5-min Rain = 0
KVP1 080435Z 28004KT M10/M14 A3028 RMK A01 T10981139  RH  072%=      5-min Rain = 0
KVP1 080436Z 28004KT M10/M14 A3028 RMK A01 T10991139  RH  073%=      5-min Rain = 0
KVP1 080437Z 28004KT M10/M14 A3028 RMK A01 T11001139  RH  073%=      5-min Rain = 0
KVP1 080438Z 28004KT M10/M14 A3028 RMK A01 T11011139  RH  074%=      5-min Rain = 0
KVP1 080439Z 28003KT M10/M14 A3028 RMK A01 T11011139  RH  074%=      5-min Rain = 0
KVP1 080440Z 28003KT M10/M14 A3028 RMK A01 T11011138  RH  074%=      5-min Rain = 0
KVP1 080441Z 28004KT M10/M14 A3028 RMK A01 T11021138  RH  075%=      5-min Rain = 0
KVP1 080442Z 28004KT M10/M14 A3028 RMK A01 T11021138  RH  075%=      5-min Rain = 0
KVP1 080443Z 27004KT M10/M14 A3028 RMK A01 T11001136  RH  075%=      5-min Rain = 0
KVP1 080444Z 28004KT M10/M14 A3028 RMK A01 T11001137  RH  074%=      5-min Rain = 0
KVP1 080445Z 28004KT M10/M14 A3028 RMK A01 T11001140  RH  073%=      5-min Rain = 0
KVP1 080446Z 28005KT M10/M14 A3028 RMK A01 T10991141  RH  072%=      5-min Rain = 0
KVP1 080447Z 28005KT M10/M14 A3028 RMK A01 T10991141  RH  071%=      5-min Rain = 0
KVP1 080448Z 28005KT M10/M14 A3028 RMK A01 T11001143  RH  071%=      5-min Rain = 0
KVP1 080449Z 29005KT M10/M14 A3028 RMK A01 T11011144  RH  071%=      5-min Rain = 0
KVP1 080450Z 28006KT M10/M14 A3028 RMK A01 T11031144  RH  071%=      5-min Rain = 0
KVP1 080451Z 29006KT M10/M15 A3028 RMK A01 T11041145  RH  072%=      5-min Rain = 0
KVP1 080452Z 30006KT M11/M15 A3028 RMK A01 T11051146  RH  072%=      5-min Rain = 0
KVP1 080453Z 29005KT M11/M15 A3028 RMK A01 T11061145  RH  073%=      5-min Rain = 0
KVP1 080454Z 29006KT M11/M14 A3028 RMK A01 T11061144  RH  074%=      5-min Rain = 0
KVP1 080455Z 29005KT M11/M14 A3028 RMK A01 T11061144  RH  074%=      5-min Rain = 0
KVP1 080456Z 29005KT M11/M14 A3028 RMK A01 T11061143  RH  074%=      5-min Rain = 0
KVP1 080457Z 29005KT M11/M14 A3028 RMK A01 T11051142  RH  074%=      5-min Rain = 0
KVP1 080458Z 30005KT M10/M14 A3028 RMK A01 T11031141  RH  074%=      5-min Rain = 0
KVP1 080459Z 29006KT M10/M14 A3028 RMK A01 T11021139  RH  074%=      5-min Rain = 0
KVP1 080500Z 29006KT M10/M14 A3028 RMK A01 T11011138  RH  074%=      5-min Rain = 0
KVP1 080501Z 29006KT M10/M14 A3028 RMK A01 T10991137  RH  074%=      5-min Rain = 0
KVP1 080502Z 29006KT M10/M14 A3028 RMK A01 T10981137  RH  073%=      5-min Rain = 0
KVP1 080503Z 30006KT M10/M14 A3028 RMK A01 T10981138  RH  073%=      5-min Rain = 0
KVP1 080504Z 30006KT M10/M14 A3028 RMK A01 T10981138  RH  073%=      5-min Rain = 0
KVP1 080505Z 30006KT M10/M14 A3028 RMK A01 T10981137  RH  073%=      5-min Rain = 0
KVP1 080506Z 29007KT M10/M14 A3028 RMK A01 T10981137  RH  073%=      5-min Rain = 0
KVP1 080507Z 29006KT M10/M14 A3028 RMK A01 T10981138  RH  073%=      5-min Rain = 0
KVP1 080508Z 30006KT M10/M14 A3028 RMK A01 T10991139  RH  073%=      5-min Rain = 0
KVP1 080509Z 30006KT M10/M14 A3028 RMK A01 T11001140  RH  073%=      5-min Rain = 0
KVP1 080510Z 30006KT M10/M14 A3028 RMK A01 T11011141  RH  073%=      5-min Rain = 0
KVP1 080511Z 30006KT M10/M14 A3028 RMK A01 T11011140  RH  073%=      5-min Rain = 0
KVP1 080512Z 30006KT M10/M14 A3027 RMK A01 T11021139  RH  074%=      5-min Rain = 0
KVP1 080513Z 30006KT M10/M14 A3027 RMK A01 T11021138  RH  074%=      5-min Rain = 0
KVP1 080514Z 30006KT M10/M14 A3027 RMK A01 T11011137  RH  075%=      5-min Rain = 0
KVP1 080515Z 30006KT M10/M14 A3027 RMK A01 T11001137  RH  075%=      5-min Rain = 0
KVP1 080516Z 30007KT M10/M14 A3028 RMK A01 T11001136  RH  075%=      5-min Rain = 0
KVP1 080517Z 30007KT M10/M14 A3028 RMK A01 T10991136  RH  074%=      5-min Rain = 0
KVP1 080518Z 30006KT M10/M14 A3027 RMK A01 T10991136  RH  074%=      5-min Rain = 0
KVP1 080519Z 30006KT M10/M14 A3027 RMK A01 T10991137  RH  074%=      5-min Rain = 0
KVP1 080520Z 30006KT M10/M14 A3027 RMK A01 T10991137  RH  074%=      5-min Rain = 0
KVP1 080521Z 29007KT M10/M14 A3027 RMK A01 T10991137  RH  074%=      5-min Rain = 0
KVP1 080522Z 30007KT M10/M14 A3027 RMK A01 T11001137  RH  074%=      5-min Rain = 0
KVP1 080523Z 30007KT M10/M14 A3027 RMK A01 T11001138  RH  074%=      5-min Rain = 0
KVP1 080524Z 30007KT M10/M14 A3027 RMK A01 T11001138  RH  074%=      5-min Rain = 0
KVP1 080525Z 29007KT M10/M14 A3027 RMK A01 T11011139  RH  074%=      5-min Rain = 0
KVP1 080526Z 29007KT M10/M14 A3027 RMK A01 T11021140  RH  074%=      5-min Rain = 0
KVP1 080527Z 29007KT M10/M14 A3027 RMK A01 T11021140  RH  074%=      5-min Rain = 0
KVP1 080528Z 29007KT M10/M14 A3027 RMK A01 T11031140  RH  074%=      5-min Rain = 0
KVP1 080529Z 29007KT M10/M14 A3027 RMK A01 T11041141  RH  074%=      5-min Rain = 0
KVP1 080530Z 29007KT M11/M14 A3027 RMK A01 T11051141  RH  075%=      5-min Rain = 0
KVP1 080531Z 29007KT M11/M14 A3027 RMK A01 T11061142  RH  075%=      5-min Rain = 0
KVP1 080532Z 29007KT M11/M14 A3027 RMK A01 T11071142  RH  075%=      5-min Rain = 0
KVP1 080533Z 29007KT M11/M14 A3027 RMK A01 T11071142  RH  075%=      5-min Rain = 0
KVP1 080534Z 29007KT M11/M14 A3027 RMK A01 T11081143  RH  076%=      5-min Rain = 0
KVP1 080535Z 29007KT M11/M14 A3027 RMK A01 T11091143  RH  076%=      5-min Rain = 0
KVP1 080536Z 29007KT M11/M14 A3027 RMK A01 T11101143  RH  076%=      5-min Rain = 0
KVP1 080537Z 29007KT M11/M14 A3027 RMK A01 T11101144  RH  077%=      5-min Rain = 0
KVP1 080538Z 29007KT M11/M14 A3027 RMK A01 T11111143  RH  077%=      5-min Rain = 0
KVP1 080539Z 29007KT M11/M14 A3027 RMK A01 T11101143  RH  077%=      5-min Rain = 0
KVP1 080540Z 29007KT M11/M14 A3027 RMK A01 T11111143  RH  077%=      5-min Rain = 0
KVP1 080541Z 29007KT M11/M14 A3027 RMK A01 T11111143  RH  077%=      5-min Rain = 0
KVP1 080542Z 29007KT M11/M14 A3027 RMK A01 T11111142  RH  078%=      5-min Rain = 0
KVP1 080543Z 29007KT M11/M14 A3027 RMK A01 T11111142  RH  078%=      5-min Rain = 0
KVP1 080544Z 29007KT M11/M14 A3027 RMK A01 T11111142  RH  078%=      5-min Rain = 0
KVP1 080545Z 29007KT M11/M14 A3027 RMK A01 T11111142  RH  078%=      5-min Rain = 0
KVP1 080546Z 29007KT M11/M14 A3026 RMK A01 T11111142  RH  078%=      5-min Rain = 0
KVP1 080547Z 29007KT M11/M14 A3026 RMK A01 T11111142  RH  078%=      5-min Rain = 0
KVP1 080548Z 29007KT M11/M14 A3026 RMK A01 T11101142  RH  078%=      5-min Rain = 0
KVP1 080549Z 29007KT M11/M14 A3026 RMK A01 T11101142  RH  077%=      5-min Rain = 0
KVP1 080550Z 29007KT M11/M14 A3026 RMK A01 T11101142  RH  077%=      5-min Rain = 0
KVP1 080551Z 29007KT M11/M14 A3026 RMK A01 T11101142  RH  077%=      5-min Rain = 0
KVP1 080552Z 29008KT M11/M14 A3026 RMK A01 T11101142  RH  077%=      5-min Rain = 0
KVP1 080553Z 29008KT M11/M14 A3026 RMK A01 T11101142  RH  077%=      5-min Rain = 0
KVP1 080554Z 29008KT M11/M14 A3026 RMK A01 T11101142  RH  077%=      5-min Rain = 0
KVP1 080555Z 29008KT M11/M14 A3026 RMK A01 T11101141  RH  078%=      5-min Rain = 0
KVP1 080556Z 29007KT M11/M14 A3026 RMK A01 T11101141  RH  078%=      5-min Rain = 0
KVP1 080557Z 29008KT M11/M14 A3026 RMK A01 T11101141  RH  078%=      5-min Rain = 0
KVP1 080558Z 29008KT M11/M14 A3026 RMK A01 T11101141  RH  078%=      5-min Rain = 0
KVP1 080559Z 29008KT M11/M14 A3026 RMK A01 T11101142  RH  078%=      5-min Rain = 0
KVP1 080600Z 29008KT M11/M14 A3026 RMK A01 T11101141  RH  077%=      5-min Rain = 0

Page generated in 0.0546 seconds.